<?xml version="1.0" encoding="UTF-8" standalone="no" ?>
<gpx xmlns="http://www.topografix.com/GPX/1/1" xmlns:xsi="http://www.w3.org/2001/XMLSchema-instance" xsi:schemaLocation="http://www.topografix.com/GPX/1/1 http://www.topografix.com/GPX/1/1/gpx.xsd" version="1.1" creator="VisuGPX - https://www.visugpx.com">
  <metadata>
    <name>121201ROBDolmenJuge</name>
    <desc><![CDATA[22 km et 450 m de dénivelé. Température bien fraiche et sol bien gadouilleux et humide.]]></desc>
  </metadata>
  <trk>
    <name><![CDATA[121201ROBDolmenJuge]]></name>
    <trkseg>
      <trkpt lat="43.40408" lon="6.06537">
        <ele>248.39999389648</ele>
        <time>2012-12-01T13:02:43Z</time>
      </trkpt>
      <trkpt lat="43.40408" lon="6.06537">
        <ele>247.60000610352</ele>
        <time>2012-12-01T13:02:45Z</time>
      </trkpt>
      <trkpt lat="43.40408" lon="6.06535">
        <ele>247.19999694824</ele>
        <time>2012-12-01T13:02:46Z</time>
      </trkpt>
      <trkpt lat="43.40405" lon="6.06535">
        <ele>216.80000305176</ele>
        <time>2012-12-01T13:02:48Z</time>
      </trkpt>
      <trkpt lat="43.40402" lon="6.06535">
        <ele>216.80000305176</ele>
        <time>2012-12-01T13:02:54Z</time>
      </trkpt>
      <trkpt lat="43.40401" lon="6.06524">
        <ele>216.80000305176</ele>
        <time>2012-12-01T13:03:04Z</time>
      </trkpt>
      <trkpt lat="43.40404" lon="6.06495">
        <ele>216.80000305176</ele>
        <time>2012-12-01T13:03:17Z</time>
      </trkpt>
      <trkpt lat="43.40402" lon="6.06497">
        <ele>216.80000305176</ele>
        <time>2012-12-01T13:03:20Z</time>
      </trkpt>
      <trkpt lat="43.40407" lon="6.06497">
        <ele>216.80000305176</ele>
        <time>2012-12-01T13:03:23Z</time>
      </trkpt>
      <trkpt lat="43.40412" lon="6.06485">
        <ele>216.80000305176</ele>
        <time>2012-12-01T13:03:27Z</time>
      </trkpt>
      <trkpt lat="43.40421" lon="6.06482">
        <ele>216.80000305176</ele>
        <time>2012-12-01T13:03:30Z</time>
      </trkpt>
      <trkpt lat="43.40482" lon="6.06501">
        <ele>216.39999389648</ele>
        <time>2012-12-01T13:03:46Z</time>
      </trkpt>
      <trkpt lat="43.405" lon="6.06508">
        <ele>214.80000305176</ele>
        <time>2012-12-01T13:03:51Z</time>
      </trkpt>
      <trkpt lat="43.40588" lon="6.06527">
        <ele>212.60000610352</ele>
        <time>2012-12-01T13:04:08Z</time>
      </trkpt>
      <trkpt lat="43.40606" lon="6.06532">
        <ele>211.80000305176</ele>
        <time>2012-12-01T13:04:11Z</time>
      </trkpt>
      <trkpt lat="43.40613" lon="6.06535">
        <ele>209.39999389648</ele>
        <time>2012-12-01T13:04:15Z</time>
      </trkpt>
      <trkpt lat="43.40617" lon="6.06533">
        <ele>208.39999389648</ele>
        <time>2012-12-01T13:04:17Z</time>
      </trkpt>
      <trkpt lat="43.40635" lon="6.06495">
        <ele>208.39999389648</ele>
        <time>2012-12-01T13:04:25Z</time>
      </trkpt>
      <trkpt lat="43.4064" lon="6.0649">
        <ele>208.39999389648</ele>
        <time>2012-12-01T13:04:26Z</time>
      </trkpt>
      <trkpt lat="43.40678" lon="6.0645">
        <ele>205.60000610352</ele>
        <time>2012-12-01T13:04:33Z</time>
      </trkpt>
      <trkpt lat="43.40696" lon="6.06437">
        <ele>204.39999389648</ele>
        <time>2012-12-01T13:04:36Z</time>
      </trkpt>
      <trkpt lat="43.40723" lon="6.06433">
        <ele>201.80000305176</ele>
        <time>2012-12-01T13:04:41Z</time>
      </trkpt>
      <trkpt lat="43.40733" lon="6.06433">
        <ele>201.39999389648</ele>
        <time>2012-12-01T13:04:44Z</time>
      </trkpt>
      <trkpt lat="43.40739" lon="6.06434">
        <ele>199.80000305176</ele>
        <time>2012-12-01T13:04:48Z</time>
      </trkpt>
      <trkpt lat="43.40741" lon="6.06433">
        <ele>199.80000305176</ele>
        <time>2012-12-01T13:04:50Z</time>
      </trkpt>
      <trkpt lat="43.40742" lon="6.06433">
        <ele>199.80000305176</ele>
        <time>2012-12-01T13:04:57Z</time>
      </trkpt>
      <trkpt lat="43.40747" lon="6.06432">
        <ele>199.80000305176</ele>
        <time>2012-12-01T13:05:00Z</time>
      </trkpt>
      <trkpt lat="43.40792" lon="6.06417">
        <ele>199.80000305176</ele>
        <time>2012-12-01T13:05:15Z</time>
      </trkpt>
      <trkpt lat="43.40818" lon="6.06425">
        <ele>199.80000305176</ele>
        <time>2012-12-01T13:05:20Z</time>
      </trkpt>
      <trkpt lat="43.40833" lon="6.06424">
        <ele>199.80000305176</ele>
        <time>2012-12-01T13:05:23Z</time>
      </trkpt>
      <trkpt lat="43.40843" lon="6.06419">
        <ele>199.80000305176</ele>
        <time>2012-12-01T13:05:25Z</time>
      </trkpt>
      <trkpt lat="43.40868" lon="6.06402">
        <ele>199.80000305176</ele>
        <time>2012-12-01T13:05:30Z</time>
      </trkpt>
      <trkpt lat="43.40934" lon="6.06319">
        <ele>199.80000305176</ele>
        <time>2012-12-01T13:05:48Z</time>
      </trkpt>
      <trkpt lat="43.40959" lon="6.06299">
        <ele>199.80000305176</ele>
        <time>2012-12-01T13:07:02Z</time>
      </trkpt>
      <trkpt lat="43.40995" lon="6.06282">
        <ele>199.80000305176</ele>
        <time>2012-12-01T13:07:12Z</time>
      </trkpt>
      <trkpt lat="43.41074" lon="6.06256">
        <ele>199.80000305176</ele>
        <time>2012-12-01T13:07:30Z</time>
      </trkpt>
      <trkpt lat="43.41132" lon="6.06242">
        <ele>199.80000305176</ele>
        <time>2012-12-01T13:07:43Z</time>
      </trkpt>
      <trkpt lat="43.41174" lon="6.06221">
        <ele>199.80000305176</ele>
        <time>2012-12-01T13:07:54Z</time>
      </trkpt>
      <trkpt lat="43.41193" lon="6.06211">
        <ele>199.80000305176</ele>
        <time>2012-12-01T13:08:02Z</time>
      </trkpt>
      <trkpt lat="43.41206" lon="6.0618">
        <ele>200.60000610352</ele>
        <time>2012-12-01T13:08:10Z</time>
      </trkpt>
      <trkpt lat="43.41202" lon="6.06126">
        <ele>201.80000305176</ele>
        <time>2012-12-01T13:08:19Z</time>
      </trkpt>
      <trkpt lat="43.41211" lon="6.06113">
        <ele>201.80000305176</ele>
        <time>2012-12-01T13:08:22Z</time>
      </trkpt>
      <trkpt lat="43.41288" lon="6.06072">
        <ele>204</ele>
        <time>2012-12-01T13:08:42Z</time>
      </trkpt>
      <trkpt lat="43.41291" lon="6.06069">
        <ele>204</ele>
        <time>2012-12-01T13:08:43Z</time>
      </trkpt>
      <trkpt lat="43.41306" lon="6.06064">
        <ele>204</ele>
        <time>2012-12-01T13:08:48Z</time>
      </trkpt>
      <trkpt lat="43.41318" lon="6.06072">
        <ele>204</ele>
        <time>2012-12-01T13:08:52Z</time>
      </trkpt>
      <trkpt lat="43.41352" lon="6.06108">
        <ele>204.80000305176</ele>
        <time>2012-12-01T13:09:05Z</time>
      </trkpt>
      <trkpt lat="43.41383" lon="6.06142">
        <ele>206.60000610352</ele>
        <time>2012-12-01T13:09:18Z</time>
      </trkpt>
      <trkpt lat="43.41419" lon="6.0617">
        <ele>208.80000305176</ele>
        <time>2012-12-01T13:09:32Z</time>
      </trkpt>
      <trkpt lat="43.41431" lon="6.06175">
        <ele>210.60000610352</ele>
        <time>2012-12-01T13:09:36Z</time>
      </trkpt>
      <trkpt lat="43.41497" lon="6.06193">
        <ele>210.60000610352</ele>
        <time>2012-12-01T13:10:00Z</time>
      </trkpt>
      <trkpt lat="43.41516" lon="6.0619">
        <ele>211.39999389648</ele>
        <time>2012-12-01T13:10:06Z</time>
      </trkpt>
      <trkpt lat="43.41525" lon="6.06189">
        <ele>212.60000610352</ele>
        <time>2012-12-01T13:10:09Z</time>
      </trkpt>
      <trkpt lat="43.41562" lon="6.06175">
        <ele>214.19999694824</ele>
        <time>2012-12-01T13:10:22Z</time>
      </trkpt>
      <trkpt lat="43.4157" lon="6.06177">
        <ele>214.60000610352</ele>
        <time>2012-12-01T13:10:25Z</time>
      </trkpt>
      <trkpt lat="43.41581" lon="6.06185">
        <ele>214.60000610352</ele>
        <time>2012-12-01T13:10:29Z</time>
      </trkpt>
      <trkpt lat="43.41591" lon="6.06203">
        <ele>214.60000610352</ele>
        <time>2012-12-01T13:10:35Z</time>
      </trkpt>
      <trkpt lat="43.41603" lon="6.062">
        <ele>214.60000610352</ele>
        <time>2012-12-01T13:10:42Z</time>
      </trkpt>
      <trkpt lat="43.41629" lon="6.06231">
        <ele>215</ele>
        <time>2012-12-01T13:10:55Z</time>
      </trkpt>
      <trkpt lat="43.4165" lon="6.06244">
        <ele>216.60000610352</ele>
        <time>2012-12-01T13:11:04Z</time>
      </trkpt>
      <trkpt lat="43.41678" lon="6.06251">
        <ele>216.60000610352</ele>
        <time>2012-12-01T13:11:14Z</time>
      </trkpt>
      <trkpt lat="43.41711" lon="6.06252">
        <ele>216.60000610352</ele>
        <time>2012-12-01T13:11:24Z</time>
      </trkpt>
      <trkpt lat="43.41751" lon="6.06255">
        <ele>218.80000305176</ele>
        <time>2012-12-01T13:11:36Z</time>
      </trkpt>
      <trkpt lat="43.41771" lon="6.06263">
        <ele>219.19999694824</ele>
        <time>2012-12-01T13:11:43Z</time>
      </trkpt>
      <trkpt lat="43.41776" lon="6.06266">
        <ele>220</ele>
        <time>2012-12-01T13:11:45Z</time>
      </trkpt>
      <trkpt lat="43.41803" lon="6.06289">
        <ele>221.19999694824</ele>
        <time>2012-12-01T13:11:58Z</time>
      </trkpt>
      <trkpt lat="43.41813" lon="6.06294">
        <ele>222.80000305176</ele>
        <time>2012-12-01T13:12:02Z</time>
      </trkpt>
      <trkpt lat="43.41919" lon="6.06295">
        <ele>229</ele>
        <time>2012-12-01T13:12:46Z</time>
      </trkpt>
      <trkpt lat="43.41969" lon="6.06282">
        <ele>231</ele>
        <time>2012-12-01T13:13:07Z</time>
      </trkpt>
      <trkpt lat="43.42004" lon="6.06269">
        <ele>234.80000305176</ele>
        <time>2012-12-01T13:13:22Z</time>
      </trkpt>
      <trkpt lat="43.42018" lon="6.06266">
        <ele>236.39999389648</ele>
        <time>2012-12-01T13:13:28Z</time>
      </trkpt>
      <trkpt lat="43.42059" lon="6.06249">
        <ele>241.39999389648</ele>
        <time>2012-12-01T13:13:46Z</time>
      </trkpt>
      <trkpt lat="43.42106" lon="6.06233">
        <ele>247.80000305176</ele>
        <time>2012-12-01T13:14:09Z</time>
      </trkpt>
      <trkpt lat="43.42125" lon="6.06228">
        <ele>248.19999694824</ele>
        <time>2012-12-01T13:14:18Z</time>
      </trkpt>
      <trkpt lat="43.42131" lon="6.06225">
        <ele>249.39999389648</ele>
        <time>2012-12-01T13:14:21Z</time>
      </trkpt>
      <trkpt lat="43.42147" lon="6.06215">
        <ele>249.80000305176</ele>
        <time>2012-12-01T13:14:30Z</time>
      </trkpt>
      <trkpt lat="43.42148" lon="6.06201">
        <ele>249.80000305176</ele>
        <time>2012-12-01T13:14:35Z</time>
      </trkpt>
      <trkpt lat="43.42126" lon="6.06138">
        <ele>249.80000305176</ele>
        <time>2012-12-01T13:14:49Z</time>
      </trkpt>
      <trkpt lat="43.4212" lon="6.06105">
        <ele>249.80000305176</ele>
        <time>2012-12-01T13:14:55Z</time>
      </trkpt>
      <trkpt lat="43.42102" lon="6.06">
        <ele>251.80000305176</ele>
        <time>2012-12-01T13:15:21Z</time>
      </trkpt>
      <trkpt lat="43.42078" lon="6.05905">
        <ele>251.80000305176</ele>
        <time>2012-12-01T13:15:38Z</time>
      </trkpt>
      <trkpt lat="43.42058" lon="6.05828">
        <ele>251.39999389648</ele>
        <time>2012-12-01T13:15:53Z</time>
      </trkpt>
      <trkpt lat="43.42037" lon="6.05711">
        <ele>249</ele>
        <time>2012-12-01T13:16:09Z</time>
      </trkpt>
      <trkpt lat="43.42026" lon="6.05653">
        <ele>247.60000610352</ele>
        <time>2012-12-01T13:16:18Z</time>
      </trkpt>
      <trkpt lat="43.4202" lon="6.05605">
        <ele>249</ele>
        <time>2012-12-01T13:16:26Z</time>
      </trkpt>
      <trkpt lat="43.41999" lon="6.05491">
        <ele>255.80000305176</ele>
        <time>2012-12-01T13:16:48Z</time>
      </trkpt>
      <trkpt lat="43.41998" lon="6.05483">
        <ele>256.20001220703</ele>
        <time>2012-12-01T13:16:50Z</time>
      </trkpt>
      <trkpt lat="43.4199" lon="6.05452">
        <ele>256.20001220703</ele>
        <time>2012-12-01T13:16:56Z</time>
      </trkpt>
      <trkpt lat="43.41974" lon="6.05395">
        <ele>255.80000305176</ele>
        <time>2012-12-01T13:17:04Z</time>
      </trkpt>
      <trkpt lat="43.41965" lon="6.05354">
        <ele>253.80000305176</ele>
        <time>2012-12-01T13:17:09Z</time>
      </trkpt>
      <trkpt lat="43.41951" lon="6.05294">
        <ele>251.80000305176</ele>
        <time>2012-12-01T13:17:16Z</time>
      </trkpt>
      <trkpt lat="43.4194" lon="6.05223">
        <ele>248.39999389648</ele>
        <time>2012-12-01T13:17:23Z</time>
      </trkpt>
      <trkpt lat="43.41939" lon="6.05166">
        <ele>244.80000305176</ele>
        <time>2012-12-01T13:17:30Z</time>
      </trkpt>
      <trkpt lat="43.41947" lon="6.05146">
        <ele>243.19999694824</ele>
        <time>2012-12-01T13:17:34Z</time>
      </trkpt>
      <trkpt lat="43.41974" lon="6.05138">
        <ele>243.19999694824</ele>
        <time>2012-12-01T13:17:42Z</time>
      </trkpt>
      <trkpt lat="43.42048" lon="6.05118">
        <ele>243.60000610352</ele>
        <time>2012-12-01T13:18:05Z</time>
      </trkpt>
      <trkpt lat="43.42076" lon="6.05115">
        <ele>245.19999694824</ele>
        <time>2012-12-01T13:18:14Z</time>
      </trkpt>
      <trkpt lat="43.42112" lon="6.05118">
        <ele>247.39999389648</ele>
        <time>2012-12-01T13:18:27Z</time>
      </trkpt>
      <trkpt lat="43.42126" lon="6.05123">
        <ele>247.39999389648</ele>
        <time>2012-12-01T13:18:33Z</time>
      </trkpt>
      <trkpt lat="43.42129" lon="6.05124">
        <ele>247.80000305176</ele>
        <time>2012-12-01T13:18:34Z</time>
      </trkpt>
      <trkpt lat="43.42151" lon="6.05152">
        <ele>249.39999389648</ele>
        <time>2012-12-01T13:18:45Z</time>
      </trkpt>
      <trkpt lat="43.42165" lon="6.05163">
        <ele>249.39999389648</ele>
        <time>2012-12-01T13:18:51Z</time>
      </trkpt>
      <trkpt lat="43.42186" lon="6.05176">
        <ele>249.80000305176</ele>
        <time>2012-12-01T13:18:59Z</time>
      </trkpt>
      <trkpt lat="43.42192" lon="6.05182">
        <ele>251</ele>
        <time>2012-12-01T13:19:02Z</time>
      </trkpt>
      <trkpt lat="43.42196" lon="6.05187">
        <ele>251.39999389648</ele>
        <time>2012-12-01T13:19:04Z</time>
      </trkpt>
      <trkpt lat="43.42225" lon="6.05201">
        <ele>251.39999389648</ele>
        <time>2012-12-01T13:19:15Z</time>
      </trkpt>
      <trkpt lat="43.42234" lon="6.05212">
        <ele>253.60000610352</ele>
        <time>2012-12-01T13:19:20Z</time>
      </trkpt>
      <trkpt lat="43.42246" lon="6.05215">
        <ele>253.60000610352</ele>
        <time>2012-12-01T13:19:24Z</time>
      </trkpt>
      <trkpt lat="43.42276" lon="6.05216">
        <ele>255.60000610352</ele>
        <time>2012-12-01T13:19:36Z</time>
      </trkpt>
      <trkpt lat="43.4229" lon="6.05219">
        <ele>255.60000610352</ele>
        <time>2012-12-01T13:19:41Z</time>
      </trkpt>
      <trkpt lat="43.4231" lon="6.05226">
        <ele>255.60000610352</ele>
        <time>2012-12-01T13:19:49Z</time>
      </trkpt>
      <trkpt lat="43.42349" lon="6.05234">
        <ele>259.79998779297</ele>
        <time>2012-12-01T13:20:08Z</time>
      </trkpt>
      <trkpt lat="43.4239" lon="6.05228">
        <ele>261.79998779297</ele>
        <time>2012-12-01T13:20:28Z</time>
      </trkpt>
      <trkpt lat="43.42408" lon="6.05223">
        <ele>263.79998779297</ele>
        <time>2012-12-01T13:20:36Z</time>
      </trkpt>
      <trkpt lat="43.42439" lon="6.05227">
        <ele>263.79998779297</ele>
        <time>2012-12-01T13:20:49Z</time>
      </trkpt>
      <trkpt lat="43.4246" lon="6.05216">
        <ele>266.79998779297</ele>
        <time>2012-12-01T13:21:02Z</time>
      </trkpt>
      <trkpt lat="43.42477" lon="6.05219">
        <ele>268</ele>
        <time>2012-12-01T13:21:11Z</time>
      </trkpt>
      <trkpt lat="43.42517" lon="6.05229">
        <ele>268</ele>
        <time>2012-12-01T13:21:29Z</time>
      </trkpt>
      <trkpt lat="43.42529" lon="6.05228">
        <ele>268</ele>
        <time>2012-12-01T13:21:35Z</time>
      </trkpt>
      <trkpt lat="43.42543" lon="6.05226">
        <ele>268</ele>
        <time>2012-12-01T13:21:41Z</time>
      </trkpt>
      <trkpt lat="43.42559" lon="6.05219">
        <ele>270</ele>
        <time>2012-12-01T13:21:50Z</time>
      </trkpt>
      <trkpt lat="43.42571" lon="6.05221">
        <ele>271.60000610352</ele>
        <time>2012-12-01T13:21:55Z</time>
      </trkpt>
      <trkpt lat="43.42594" lon="6.05241">
        <ele>272</ele>
        <time>2012-12-01T13:22:07Z</time>
      </trkpt>
      <trkpt lat="43.42602" lon="6.05248">
        <ele>272</ele>
        <time>2012-12-01T13:22:13Z</time>
      </trkpt>
      <trkpt lat="43.42631" lon="6.05266">
        <ele>272</ele>
        <time>2012-12-01T13:28:18Z</time>
      </trkpt>
      <trkpt lat="43.42633" lon="6.05268">
        <ele>272</ele>
        <time>2012-12-01T13:28:25Z</time>
      </trkpt>
      <trkpt lat="43.42653" lon="6.05294">
        <ele>272.79998779297</ele>
        <time>2012-12-01T13:28:40Z</time>
      </trkpt>
      <trkpt lat="43.42673" lon="6.05326">
        <ele>275.79998779297</ele>
        <time>2012-12-01T13:28:59Z</time>
      </trkpt>
      <trkpt lat="43.42678" lon="6.05331">
        <ele>276.20001220703</ele>
        <time>2012-12-01T13:29:18Z</time>
      </trkpt>
      <trkpt lat="43.42682" lon="6.05337">
        <ele>276.20001220703</ele>
        <time>2012-12-01T13:29:23Z</time>
      </trkpt>
      <trkpt lat="43.42697" lon="6.05345">
        <ele>278.20001220703</ele>
        <time>2012-12-01T13:29:34Z</time>
      </trkpt>
      <trkpt lat="43.42712" lon="6.05342">
        <ele>278.20001220703</ele>
        <time>2012-12-01T13:29:42Z</time>
      </trkpt>
      <trkpt lat="43.4272" lon="6.05349">
        <ele>278.60000610352</ele>
        <time>2012-12-01T13:29:47Z</time>
      </trkpt>
      <trkpt lat="43.42719" lon="6.05358">
        <ele>280.20001220703</ele>
        <time>2012-12-01T13:29:51Z</time>
      </trkpt>
      <trkpt lat="43.42716" lon="6.05374">
        <ele>280.20001220703</ele>
        <time>2012-12-01T13:29:58Z</time>
      </trkpt>
      <trkpt lat="43.42728" lon="6.05417">
        <ele>283.39999389648</ele>
        <time>2012-12-01T13:30:19Z</time>
      </trkpt>
      <trkpt lat="43.42731" lon="6.05434">
        <ele>284.39999389648</ele>
        <time>2012-12-01T13:30:28Z</time>
      </trkpt>
      <trkpt lat="43.4273" lon="6.0544">
        <ele>284.39999389648</ele>
        <time>2012-12-01T13:30:32Z</time>
      </trkpt>
      <trkpt lat="43.42723" lon="6.05468">
        <ele>286.39999389648</ele>
        <time>2012-12-01T13:30:47Z</time>
      </trkpt>
      <trkpt lat="43.42729" lon="6.05526">
        <ele>288.39999389648</ele>
        <time>2012-12-01T13:31:13Z</time>
      </trkpt>
      <trkpt lat="43.42733" lon="6.05547">
        <ele>290</ele>
        <time>2012-12-01T13:31:23Z</time>
      </trkpt>
      <trkpt lat="43.42736" lon="6.05562">
        <ele>290.39999389648</ele>
        <time>2012-12-01T13:31:31Z</time>
      </trkpt>
      <trkpt lat="43.4275" lon="6.05582">
        <ele>292.60000610352</ele>
        <time>2012-12-01T13:31:43Z</time>
      </trkpt>
      <trkpt lat="43.42755" lon="6.05596">
        <ele>294.20001220703</ele>
        <time>2012-12-01T13:31:50Z</time>
      </trkpt>
      <trkpt lat="43.42751" lon="6.05616">
        <ele>295.79998779297</ele>
        <time>2012-12-01T13:31:59Z</time>
      </trkpt>
      <trkpt lat="43.42747" lon="6.05624">
        <ele>296.79998779297</ele>
        <time>2012-12-01T13:32:03Z</time>
      </trkpt>
      <trkpt lat="43.42744" lon="6.05632">
        <ele>296.79998779297</ele>
        <time>2012-12-01T13:32:07Z</time>
      </trkpt>
      <trkpt lat="43.42729" lon="6.0565">
        <ele>298.79998779297</ele>
        <time>2012-12-01T13:32:18Z</time>
      </trkpt>
      <trkpt lat="43.42726" lon="6.05661">
        <ele>298.79998779297</ele>
        <time>2012-12-01T13:32:24Z</time>
      </trkpt>
      <trkpt lat="43.42726" lon="6.05663">
        <ele>298.79998779297</ele>
        <time>2012-12-01T13:33:00Z</time>
      </trkpt>
      <trkpt lat="43.42723" lon="6.05669">
        <ele>298.79998779297</ele>
        <time>2012-12-01T13:33:05Z</time>
      </trkpt>
      <trkpt lat="43.4271" lon="6.05683">
        <ele>300.79998779297</ele>
        <time>2012-12-01T13:33:16Z</time>
      </trkpt>
      <trkpt lat="43.42703" lon="6.05705">
        <ele>303</ele>
        <time>2012-12-01T13:33:26Z</time>
      </trkpt>
      <trkpt lat="43.42698" lon="6.05722">
        <ele>305.20001220703</ele>
        <time>2012-12-01T13:36:20Z</time>
      </trkpt>
      <trkpt lat="43.42697" lon="6.05726">
        <ele>305.20001220703</ele>
        <time>2012-12-01T13:36:22Z</time>
      </trkpt>
      <trkpt lat="43.42698" lon="6.05732">
        <ele>305.20001220703</ele>
        <time>2012-12-01T13:36:25Z</time>
      </trkpt>
      <trkpt lat="43.42701" lon="6.05737">
        <ele>305.20001220703</ele>
        <time>2012-12-01T13:36:28Z</time>
      </trkpt>
      <trkpt lat="43.42746" lon="6.05743">
        <ele>307.20001220703</ele>
        <time>2012-12-01T13:36:56Z</time>
      </trkpt>
      <trkpt lat="43.4275" lon="6.05743">
        <ele>307.20001220703</ele>
        <time>2012-12-01T13:36:59Z</time>
      </trkpt>
      <trkpt lat="43.42758" lon="6.05734">
        <ele>307.20001220703</ele>
        <time>2012-12-01T13:37:05Z</time>
      </trkpt>
      <trkpt lat="43.42766" lon="6.05732">
        <ele>307.20001220703</ele>
        <time>2012-12-01T13:37:09Z</time>
      </trkpt>
      <trkpt lat="43.42802" lon="6.05744">
        <ele>309.20001220703</ele>
        <time>2012-12-01T13:37:31Z</time>
      </trkpt>
      <trkpt lat="43.42812" lon="6.05738">
        <ele>309.20001220703</ele>
        <time>2012-12-01T13:37:36Z</time>
      </trkpt>
      <trkpt lat="43.4283" lon="6.05734">
        <ele>309.20001220703</ele>
        <time>2012-12-01T13:38:28Z</time>
      </trkpt>
      <trkpt lat="43.42834" lon="6.05737">
        <ele>309.20001220703</ele>
        <time>2012-12-01T13:38:41Z</time>
      </trkpt>
      <trkpt lat="43.4283" lon="6.05748">
        <ele>309.20001220703</ele>
        <time>2012-12-01T13:38:48Z</time>
      </trkpt>
      <trkpt lat="43.42822" lon="6.05809">
        <ele>309.20001220703</ele>
        <time>2012-12-01T13:39:08Z</time>
      </trkpt>
      <trkpt lat="43.42822" lon="6.05821">
        <ele>309.20001220703</ele>
        <time>2012-12-01T13:39:12Z</time>
      </trkpt>
      <trkpt lat="43.42811" lon="6.05853">
        <ele>312.60000610352</ele>
        <time>2012-12-01T13:39:24Z</time>
      </trkpt>
      <trkpt lat="43.42788" lon="6.05908">
        <ele>319.39999389648</ele>
        <time>2012-12-01T13:39:53Z</time>
      </trkpt>
      <trkpt lat="43.42785" lon="6.0592">
        <ele>319.79998779297</ele>
        <time>2012-12-01T13:39:59Z</time>
      </trkpt>
      <trkpt lat="43.42779" lon="6.05974">
        <ele>322</ele>
        <time>2012-12-01T13:40:22Z</time>
      </trkpt>
      <trkpt lat="43.42779" lon="6.05976">
        <ele>322</ele>
        <time>2012-12-01T13:40:25Z</time>
      </trkpt>
      <trkpt lat="43.42779" lon="6.05976">
        <ele>322</ele>
        <time>2012-12-01T13:40:39Z</time>
      </trkpt>
      <trkpt lat="43.42779" lon="6.05981">
        <ele>322</ele>
        <time>2012-12-01T13:41:08Z</time>
      </trkpt>
      <trkpt lat="43.4278" lon="6.0599">
        <ele>322</ele>
        <time>2012-12-01T13:41:17Z</time>
      </trkpt>
      <trkpt lat="43.42781" lon="6.05991">
        <ele>322</ele>
        <time>2012-12-01T13:41:19Z</time>
      </trkpt>
      <trkpt lat="43.42794" lon="6.05986">
        <ele>320.20001220703</ele>
        <time>2012-12-01T13:41:31Z</time>
      </trkpt>
      <trkpt lat="43.42795" lon="6.05986">
        <ele>319.79998779297</ele>
        <time>2012-12-01T13:41:32Z</time>
      </trkpt>
      <trkpt lat="43.42796" lon="6.05986">
        <ele>319.79998779297</ele>
        <time>2012-12-01T13:41:33Z</time>
      </trkpt>
      <trkpt lat="43.42797" lon="6.05987">
        <ele>319.79998779297</ele>
        <time>2012-12-01T13:41:37Z</time>
      </trkpt>
      <trkpt lat="43.42824" lon="6.06001">
        <ele>316.79998779297</ele>
        <time>2012-12-01T13:41:46Z</time>
      </trkpt>
      <trkpt lat="43.42861" lon="6.06048">
        <ele>309.60000610352</ele>
        <time>2012-12-01T13:41:58Z</time>
      </trkpt>
      <trkpt lat="43.42865" lon="6.06056">
        <ele>308.20001220703</ele>
        <time>2012-12-01T13:42:00Z</time>
      </trkpt>
      <trkpt lat="43.42864" lon="6.06093">
        <ele>304.20001220703</ele>
        <time>2012-12-01T13:42:06Z</time>
      </trkpt>
      <trkpt lat="43.4286" lon="6.06118">
        <ele>300.79998779297</ele>
        <time>2012-12-01T13:42:11Z</time>
      </trkpt>
      <trkpt lat="43.42868" lon="6.06147">
        <ele>298</ele>
        <time>2012-12-01T13:42:16Z</time>
      </trkpt>
      <trkpt lat="43.42875" lon="6.062">
        <ele>291.79998779297</ele>
        <time>2012-12-01T13:42:27Z</time>
      </trkpt>
      <trkpt lat="43.4287" lon="6.06224">
        <ele>289.79998779297</ele>
        <time>2012-12-01T13:42:32Z</time>
      </trkpt>
      <trkpt lat="43.42856" lon="6.06238">
        <ele>287.79998779297</ele>
        <time>2012-12-01T13:42:37Z</time>
      </trkpt>
      <trkpt lat="43.42858" lon="6.0625">
        <ele>286.20001220703</ele>
        <time>2012-12-01T13:42:41Z</time>
      </trkpt>
      <trkpt lat="43.42864" lon="6.06261">
        <ele>284.20001220703</ele>
        <time>2012-12-01T13:42:45Z</time>
      </trkpt>
      <trkpt lat="43.42866" lon="6.06263">
        <ele>283.60000610352</ele>
        <time>2012-12-01T13:42:46Z</time>
      </trkpt>
      <trkpt lat="43.42876" lon="6.06263">
        <ele>281.39999389648</ele>
        <time>2012-12-01T13:42:50Z</time>
      </trkpt>
      <trkpt lat="43.42892" lon="6.0627">
        <ele>278</ele>
        <time>2012-12-01T13:42:57Z</time>
      </trkpt>
      <trkpt lat="43.42919" lon="6.06291">
        <ele>270.79998779297</ele>
        <time>2012-12-01T13:43:06Z</time>
      </trkpt>
      <trkpt lat="43.42921" lon="6.06291">
        <ele>268.60000610352</ele>
        <time>2012-12-01T13:43:09Z</time>
      </trkpt>
      <trkpt lat="43.42922" lon="6.06291">
        <ele>268.60000610352</ele>
        <time>2012-12-01T13:44:48Z</time>
      </trkpt>
      <trkpt lat="43.42927" lon="6.0629">
        <ele>268.60000610352</ele>
        <time>2012-12-01T13:44:53Z</time>
      </trkpt>
      <trkpt lat="43.42939" lon="6.0629">
        <ele>267</ele>
        <time>2012-12-01T13:44:58Z</time>
      </trkpt>
      <trkpt lat="43.42954" lon="6.06309">
        <ele>264.79998779297</ele>
        <time>2012-12-01T13:45:04Z</time>
      </trkpt>
      <trkpt lat="43.42961" lon="6.06313">
        <ele>264.39999389648</ele>
        <time>2012-12-01T13:45:07Z</time>
      </trkpt>
      <trkpt lat="43.42967" lon="6.06311">
        <ele>264.39999389648</ele>
        <time>2012-12-01T13:45:09Z</time>
      </trkpt>
      <trkpt lat="43.4299" lon="6.06317">
        <ele>263</ele>
        <time>2012-12-01T13:45:15Z</time>
      </trkpt>
      <trkpt lat="43.42999" lon="6.06317">
        <ele>262.20001220703</ele>
        <time>2012-12-01T13:45:17Z</time>
      </trkpt>
      <trkpt lat="43.43024" lon="6.06319">
        <ele>261.79998779297</ele>
        <time>2012-12-01T13:45:23Z</time>
      </trkpt>
      <trkpt lat="43.43029" lon="6.06337">
        <ele>260</ele>
        <time>2012-12-01T13:45:28Z</time>
      </trkpt>
      <trkpt lat="43.43037" lon="6.06345">
        <ele>260</ele>
        <time>2012-12-01T13:45:32Z</time>
      </trkpt>
      <trkpt lat="43.43048" lon="6.0635">
        <ele>260</ele>
        <time>2012-12-01T13:45:37Z</time>
      </trkpt>
      <trkpt lat="43.43064" lon="6.06356">
        <ele>260</ele>
        <time>2012-12-01T13:45:41Z</time>
      </trkpt>
      <trkpt lat="43.43071" lon="6.06362">
        <ele>259.60000610352</ele>
        <time>2012-12-01T13:45:43Z</time>
      </trkpt>
      <trkpt lat="43.43076" lon="6.06374">
        <ele>258.39999389648</ele>
        <time>2012-12-01T13:45:46Z</time>
      </trkpt>
      <trkpt lat="43.43082" lon="6.06394">
        <ele>258</ele>
        <time>2012-12-01T13:45:50Z</time>
      </trkpt>
      <trkpt lat="43.43101" lon="6.06461">
        <ele>256.20001220703</ele>
        <time>2012-12-01T13:46:01Z</time>
      </trkpt>
      <trkpt lat="43.43108" lon="6.06482">
        <ele>255</ele>
        <time>2012-12-01T13:46:04Z</time>
      </trkpt>
      <trkpt lat="43.43145" lon="6.06524">
        <ele>251.19999694824</ele>
        <time>2012-12-01T13:46:12Z</time>
      </trkpt>
      <trkpt lat="43.4316" lon="6.0655">
        <ele>249.19999694824</ele>
        <time>2012-12-01T13:46:16Z</time>
      </trkpt>
      <trkpt lat="43.43164" lon="6.06555">
        <ele>248.19999694824</ele>
        <time>2012-12-01T13:46:17Z</time>
      </trkpt>
      <trkpt lat="43.43168" lon="6.06556">
        <ele>247</ele>
        <time>2012-12-01T13:46:19Z</time>
      </trkpt>
      <trkpt lat="43.43164" lon="6.06533">
        <ele>244.80000305176</ele>
        <time>2012-12-01T13:46:28Z</time>
      </trkpt>
      <trkpt lat="43.43159" lon="6.0651">
        <ele>244.80000305176</ele>
        <time>2012-12-01T13:46:35Z</time>
      </trkpt>
      <trkpt lat="43.43155" lon="6.06493">
        <ele>244.80000305176</ele>
        <time>2012-12-01T13:46:40Z</time>
      </trkpt>
      <trkpt lat="43.43143" lon="6.06415">
        <ele>247</ele>
        <time>2012-12-01T13:47:01Z</time>
      </trkpt>
      <trkpt lat="43.43136" lon="6.06356">
        <ele>247.80000305176</ele>
        <time>2012-12-01T13:47:16Z</time>
      </trkpt>
      <trkpt lat="43.43126" lon="6.06247">
        <ele>251</ele>
        <time>2012-12-01T13:47:46Z</time>
      </trkpt>
      <trkpt lat="43.43126" lon="6.06229">
        <ele>251</ele>
        <time>2012-12-01T13:47:51Z</time>
      </trkpt>
      <trkpt lat="43.43126" lon="6.0618">
        <ele>253.19999694824</ele>
        <time>2012-12-01T13:48:03Z</time>
      </trkpt>
      <trkpt lat="43.43157" lon="6.06028">
        <ele>255.39999389648</ele>
        <time>2012-12-01T13:48:40Z</time>
      </trkpt>
      <trkpt lat="43.43166" lon="6.05981">
        <ele>255.39999389648</ele>
        <time>2012-12-01T13:48:50Z</time>
      </trkpt>
      <trkpt lat="43.43181" lon="6.05931">
        <ele>255.39999389648</ele>
        <time>2012-12-01T13:49:02Z</time>
      </trkpt>
      <trkpt lat="43.43182" lon="6.05914">
        <ele>255.39999389648</ele>
        <time>2012-12-01T13:49:06Z</time>
      </trkpt>
      <trkpt lat="43.43192" lon="6.05887">
        <ele>255.39999389648</ele>
        <time>2012-12-01T13:49:13Z</time>
      </trkpt>
      <trkpt lat="43.43203" lon="6.05835">
        <ele>255.39999389648</ele>
        <time>2012-12-01T13:49:27Z</time>
      </trkpt>
      <trkpt lat="43.4322" lon="6.05697">
        <ele>255.39999389648</ele>
        <time>2012-12-01T13:50:05Z</time>
      </trkpt>
      <trkpt lat="43.4323" lon="6.05581">
        <ele>255.39999389648</ele>
        <time>2012-12-01T13:50:26Z</time>
      </trkpt>
      <trkpt lat="43.43233" lon="6.05566">
        <ele>255.39999389648</ele>
        <time>2012-12-01T13:50:30Z</time>
      </trkpt>
      <trkpt lat="43.43237" lon="6.05543">
        <ele>255.39999389648</ele>
        <time>2012-12-01T13:50:35Z</time>
      </trkpt>
      <trkpt lat="43.43257" lon="6.0547">
        <ele>253.19999694824</ele>
        <time>2012-12-01T13:50:48Z</time>
      </trkpt>
      <trkpt lat="43.43293" lon="6.0538">
        <ele>248.80000305176</ele>
        <time>2012-12-01T13:51:12Z</time>
      </trkpt>
      <trkpt lat="43.43299" lon="6.05364">
        <ele>248.80000305176</ele>
        <time>2012-12-01T13:51:17Z</time>
      </trkpt>
      <trkpt lat="43.43318" lon="6.05326">
        <ele>248.80000305176</ele>
        <time>2012-12-01T13:51:28Z</time>
      </trkpt>
      <trkpt lat="43.43355" lon="6.05229">
        <ele>248.80000305176</ele>
        <time>2012-12-01T13:51:49Z</time>
      </trkpt>
      <trkpt lat="43.43405" lon="6.05081">
        <ele>250.80000305176</ele>
        <time>2012-12-01T13:52:28Z</time>
      </trkpt>
      <trkpt lat="43.43427" lon="6.04956">
        <ele>247.19999694824</ele>
        <time>2012-12-01T13:52:46Z</time>
      </trkpt>
      <trkpt lat="43.43433" lon="6.04878">
        <ele>246.80000305176</ele>
        <time>2012-12-01T13:52:59Z</time>
      </trkpt>
      <trkpt lat="43.43435" lon="6.04813">
        <ele>246.80000305176</ele>
        <time>2012-12-01T13:53:12Z</time>
      </trkpt>
      <trkpt lat="43.43437" lon="6.04777">
        <ele>246.80000305176</ele>
        <time>2012-12-01T13:53:19Z</time>
      </trkpt>
      <trkpt lat="43.43452" lon="6.0465">
        <ele>249</ele>
        <time>2012-12-01T13:53:47Z</time>
      </trkpt>
      <trkpt lat="43.43462" lon="6.04591">
        <ele>249</ele>
        <time>2012-12-01T13:54:01Z</time>
      </trkpt>
      <trkpt lat="43.43483" lon="6.04546">
        <ele>251</ele>
        <time>2012-12-01T13:54:14Z</time>
      </trkpt>
      <trkpt lat="43.43497" lon="6.04488">
        <ele>251</ele>
        <time>2012-12-01T13:54:29Z</time>
      </trkpt>
      <trkpt lat="43.43487" lon="6.04383">
        <ele>251</ele>
        <time>2012-12-01T13:54:53Z</time>
      </trkpt>
      <trkpt lat="43.435" lon="6.04276">
        <ele>251</ele>
        <time>2012-12-01T13:55:15Z</time>
      </trkpt>
      <trkpt lat="43.43518" lon="6.04244">
        <ele>251</ele>
        <time>2012-12-01T13:55:23Z</time>
      </trkpt>
      <trkpt lat="43.43532" lon="6.04231">
        <ele>251</ele>
        <time>2012-12-01T13:55:27Z</time>
      </trkpt>
      <trkpt lat="43.4354" lon="6.04217">
        <ele>251</ele>
        <time>2012-12-01T13:55:31Z</time>
      </trkpt>
      <trkpt lat="43.43542" lon="6.04197">
        <ele>251</ele>
        <time>2012-12-01T13:55:36Z</time>
      </trkpt>
      <trkpt lat="43.43537" lon="6.04184">
        <ele>251</ele>
        <time>2012-12-01T13:55:40Z</time>
      </trkpt>
      <trkpt lat="43.43535" lon="6.04167">
        <ele>251</ele>
        <time>2012-12-01T13:55:46Z</time>
      </trkpt>
      <trkpt lat="43.43539" lon="6.04149">
        <ele>251</ele>
        <time>2012-12-01T13:55:51Z</time>
      </trkpt>
      <trkpt lat="43.43549" lon="6.04131">
        <ele>251</ele>
        <time>2012-12-01T13:55:57Z</time>
      </trkpt>
      <trkpt lat="43.43555" lon="6.04103">
        <ele>251</ele>
        <time>2012-12-01T13:56:06Z</time>
      </trkpt>
      <trkpt lat="43.43557" lon="6.04095">
        <ele>251</ele>
        <time>2012-12-01T13:56:11Z</time>
      </trkpt>
      <trkpt lat="43.43569" lon="6.04064">
        <ele>251</ele>
        <time>2012-12-01T13:56:23Z</time>
      </trkpt>
      <trkpt lat="43.43577" lon="6.04051">
        <ele>251.39999389648</ele>
        <time>2012-12-01T13:56:28Z</time>
      </trkpt>
      <trkpt lat="43.436" lon="6.04012">
        <ele>255.19999694824</ele>
        <time>2012-12-01T13:56:44Z</time>
      </trkpt>
      <trkpt lat="43.43603" lon="6.04001">
        <ele>255.19999694824</ele>
        <time>2012-12-01T13:56:48Z</time>
      </trkpt>
      <trkpt lat="43.43607" lon="6.0398">
        <ele>255.19999694824</ele>
        <time>2012-12-01T13:56:54Z</time>
      </trkpt>
      <trkpt lat="43.43607" lon="6.03944">
        <ele>254.80000305176</ele>
        <time>2012-12-01T13:57:00Z</time>
      </trkpt>
      <trkpt lat="43.43598" lon="6.03928">
        <ele>253</ele>
        <time>2012-12-01T13:57:05Z</time>
      </trkpt>
      <trkpt lat="43.43594" lon="6.03912">
        <ele>253</ele>
        <time>2012-12-01T13:57:10Z</time>
      </trkpt>
      <trkpt lat="43.43592" lon="6.03889">
        <ele>253</ele>
        <time>2012-12-01T13:57:17Z</time>
      </trkpt>
      <trkpt lat="43.43589" lon="6.0383">
        <ele>255</ele>
        <time>2012-12-01T13:57:46Z</time>
      </trkpt>
      <trkpt lat="43.43579" lon="6.03807">
        <ele>257.20001220703</ele>
        <time>2012-12-01T13:57:57Z</time>
      </trkpt>
      <trkpt lat="43.43576" lon="6.03801">
        <ele>257.20001220703</ele>
        <time>2012-12-01T13:58:02Z</time>
      </trkpt>
      <trkpt lat="43.43576" lon="6.03801">
        <ele>259.20001220703</ele>
        <time>2012-12-01T13:58:35Z</time>
      </trkpt>
      <trkpt lat="43.43573" lon="6.03782">
        <ele>259.20001220703</ele>
        <time>2012-12-01T13:58:49Z</time>
      </trkpt>
      <trkpt lat="43.43573" lon="6.03706">
        <ele>257</ele>
        <time>2012-12-01T13:59:06Z</time>
      </trkpt>
      <trkpt lat="43.43576" lon="6.03669">
        <ele>257</ele>
        <time>2012-12-01T13:59:16Z</time>
      </trkpt>
      <trkpt lat="43.43582" lon="6.03634">
        <ele>257</ele>
        <time>2012-12-01T13:59:34Z</time>
      </trkpt>
      <trkpt lat="43.43583" lon="6.0359">
        <ele>257</ele>
        <time>2012-12-01T13:59:46Z</time>
      </trkpt>
      <trkpt lat="43.43587" lon="6.03572">
        <ele>257</ele>
        <time>2012-12-01T13:59:52Z</time>
      </trkpt>
      <trkpt lat="43.43609" lon="6.03518">
        <ele>257</ele>
        <time>2012-12-01T14:00:10Z</time>
      </trkpt>
      <trkpt lat="43.43613" lon="6.03484">
        <ele>257</ele>
        <time>2012-12-01T14:00:21Z</time>
      </trkpt>
      <trkpt lat="43.43626" lon="6.03451">
        <ele>257</ele>
        <time>2012-12-01T14:00:32Z</time>
      </trkpt>
      <trkpt lat="43.43628" lon="6.03387">
        <ele>257</ele>
        <time>2012-12-01T14:00:50Z</time>
      </trkpt>
      <trkpt lat="43.43651" lon="6.03349">
        <ele>257</ele>
        <time>2012-12-01T14:01:05Z</time>
      </trkpt>
      <trkpt lat="43.43665" lon="6.03317">
        <ele>257</ele>
        <time>2012-12-01T14:01:14Z</time>
      </trkpt>
      <trkpt lat="43.43666" lon="6.03307">
        <ele>257</ele>
        <time>2012-12-01T14:01:21Z</time>
      </trkpt>
      <trkpt lat="43.43677" lon="6.03297">
        <ele>257</ele>
        <time>2012-12-01T14:01:31Z</time>
      </trkpt>
      <trkpt lat="43.43689" lon="6.03254">
        <ele>257</ele>
        <time>2012-12-01T14:02:58Z</time>
      </trkpt>
      <trkpt lat="43.43689" lon="6.03247">
        <ele>257</ele>
        <time>2012-12-01T14:03:01Z</time>
      </trkpt>
      <trkpt lat="43.43685" lon="6.03231">
        <ele>257</ele>
        <time>2012-12-01T14:03:06Z</time>
      </trkpt>
      <trkpt lat="43.43691" lon="6.03173">
        <ele>259</ele>
        <time>2012-12-01T14:03:29Z</time>
      </trkpt>
      <trkpt lat="43.4369" lon="6.03174">
        <ele>259</ele>
        <time>2012-12-01T14:03:40Z</time>
      </trkpt>
      <trkpt lat="43.43688" lon="6.03172">
        <ele>259</ele>
        <time>2012-12-01T14:03:41Z</time>
      </trkpt>
      <trkpt lat="43.43676" lon="6.03153">
        <ele>259</ele>
        <time>2012-12-01T14:03:57Z</time>
      </trkpt>
      <trkpt lat="43.43688" lon="6.03173">
        <ele>259</ele>
        <time>2012-12-01T14:04:30Z</time>
      </trkpt>
      <trkpt lat="43.43693" lon="6.03169">
        <ele>259</ele>
        <time>2012-12-01T14:04:38Z</time>
      </trkpt>
      <trkpt lat="43.43691" lon="6.03157">
        <ele>259</ele>
        <time>2012-12-01T14:05:09Z</time>
      </trkpt>
      <trkpt lat="43.43692" lon="6.03112">
        <ele>259</ele>
        <time>2012-12-01T14:07:08Z</time>
      </trkpt>
      <trkpt lat="43.43705" lon="6.0307">
        <ele>259</ele>
        <time>2012-12-01T14:07:21Z</time>
      </trkpt>
      <trkpt lat="43.43733" lon="6.03047">
        <ele>259</ele>
        <time>2012-12-01T14:07:32Z</time>
      </trkpt>
      <trkpt lat="43.43761" lon="6.03032">
        <ele>257</ele>
        <time>2012-12-01T14:07:42Z</time>
      </trkpt>
      <trkpt lat="43.43768" lon="6.03017">
        <ele>257</ele>
        <time>2012-12-01T14:07:54Z</time>
      </trkpt>
      <trkpt lat="43.43785" lon="6.02981">
        <ele>257</ele>
        <time>2012-12-01T14:08:12Z</time>
      </trkpt>
      <trkpt lat="43.43785" lon="6.02965">
        <ele>257</ele>
        <time>2012-12-01T14:08:18Z</time>
      </trkpt>
      <trkpt lat="43.43793" lon="6.02933">
        <ele>257</ele>
        <time>2012-12-01T14:08:32Z</time>
      </trkpt>
      <trkpt lat="43.43792" lon="6.02898">
        <ele>257</ele>
        <time>2012-12-01T14:08:46Z</time>
      </trkpt>
      <trkpt lat="43.43795" lon="6.02876">
        <ele>257</ele>
        <time>2012-12-01T14:08:54Z</time>
      </trkpt>
      <trkpt lat="43.43809" lon="6.02835">
        <ele>257</ele>
        <time>2012-12-01T14:09:10Z</time>
      </trkpt>
      <trkpt lat="43.43808" lon="6.02816">
        <ele>257</ele>
        <time>2012-12-01T14:09:19Z</time>
      </trkpt>
      <trkpt lat="43.438" lon="6.02801">
        <ele>259</ele>
        <time>2012-12-01T14:09:37Z</time>
      </trkpt>
      <trkpt lat="43.43784" lon="6.02774">
        <ele>259</ele>
        <time>2012-12-01T14:09:54Z</time>
      </trkpt>
      <trkpt lat="43.43788" lon="6.0275">
        <ele>259</ele>
        <time>2012-12-01T14:10:04Z</time>
      </trkpt>
      <trkpt lat="43.43787" lon="6.02742">
        <ele>259</ele>
        <time>2012-12-01T14:10:07Z</time>
      </trkpt>
      <trkpt lat="43.43784" lon="6.02728">
        <ele>259</ele>
        <time>2012-12-01T14:10:12Z</time>
      </trkpt>
      <trkpt lat="43.43781" lon="6.02724">
        <ele>259</ele>
        <time>2012-12-01T14:10:15Z</time>
      </trkpt>
      <trkpt lat="43.4377" lon="6.02718">
        <ele>260.20001220703</ele>
        <time>2012-12-01T14:10:22Z</time>
      </trkpt>
      <trkpt lat="43.43764" lon="6.0271">
        <ele>261</ele>
        <time>2012-12-01T14:10:27Z</time>
      </trkpt>
      <trkpt lat="43.43776" lon="6.027">
        <ele>261</ele>
        <time>2012-12-01T14:10:36Z</time>
      </trkpt>
      <trkpt lat="43.43786" lon="6.02684">
        <ele>261</ele>
        <time>2012-12-01T14:10:44Z</time>
      </trkpt>
      <trkpt lat="43.43783" lon="6.02647">
        <ele>261</ele>
        <time>2012-12-01T14:11:02Z</time>
      </trkpt>
      <trkpt lat="43.4379" lon="6.02622">
        <ele>261</ele>
        <time>2012-12-01T14:11:13Z</time>
      </trkpt>
      <trkpt lat="43.43794" lon="6.02599">
        <ele>261</ele>
        <time>2012-12-01T14:11:21Z</time>
      </trkpt>
      <trkpt lat="43.43791" lon="6.02538">
        <ele>263</ele>
        <time>2012-12-01T14:11:44Z</time>
      </trkpt>
      <trkpt lat="43.43797" lon="6.02514">
        <ele>263</ele>
        <time>2012-12-01T14:11:53Z</time>
      </trkpt>
      <trkpt lat="43.43797" lon="6.02484">
        <ele>263</ele>
        <time>2012-12-01T14:12:05Z</time>
      </trkpt>
      <trkpt lat="43.43786" lon="6.02476">
        <ele>263</ele>
        <time>2012-12-01T14:13:02Z</time>
      </trkpt>
      <trkpt lat="43.43779" lon="6.0247">
        <ele>263</ele>
        <time>2012-12-01T14:13:08Z</time>
      </trkpt>
      <trkpt lat="43.43779" lon="6.02462">
        <ele>263</ele>
        <time>2012-12-01T14:13:12Z</time>
      </trkpt>
      <trkpt lat="43.43775" lon="6.02456">
        <ele>264</ele>
        <time>2012-12-01T14:13:18Z</time>
      </trkpt>
      <trkpt lat="43.43776" lon="6.02439">
        <ele>265.39999389648</ele>
        <time>2012-12-01T14:13:30Z</time>
      </trkpt>
      <trkpt lat="43.43773" lon="6.02432">
        <ele>265.39999389648</ele>
        <time>2012-12-01T14:13:35Z</time>
      </trkpt>
      <trkpt lat="43.43762" lon="6.02419">
        <ele>265.39999389648</ele>
        <time>2012-12-01T14:13:45Z</time>
      </trkpt>
      <trkpt lat="43.43761" lon="6.02415">
        <ele>265.39999389648</ele>
        <time>2012-12-01T14:13:47Z</time>
      </trkpt>
      <trkpt lat="43.43756" lon="6.02404">
        <ele>265.79998779297</ele>
        <time>2012-12-01T14:13:53Z</time>
      </trkpt>
      <trkpt lat="43.43744" lon="6.02389">
        <ele>269.60000610352</ele>
        <time>2012-12-01T14:14:03Z</time>
      </trkpt>
      <trkpt lat="43.43743" lon="6.02387">
        <ele>269.60000610352</ele>
        <time>2012-12-01T14:14:05Z</time>
      </trkpt>
      <trkpt lat="43.43743" lon="6.02387">
        <ele>269.60000610352</ele>
        <time>2012-12-01T14:14:19Z</time>
      </trkpt>
      <trkpt lat="43.43734" lon="6.02364">
        <ele>269.60000610352</ele>
        <time>2012-12-01T14:14:49Z</time>
      </trkpt>
      <trkpt lat="43.43732" lon="6.02361">
        <ele>269.60000610352</ele>
        <time>2012-12-01T14:14:51Z</time>
      </trkpt>
      <trkpt lat="43.43723" lon="6.02363">
        <ele>271.60000610352</ele>
        <time>2012-12-01T14:14:56Z</time>
      </trkpt>
      <trkpt lat="43.43718" lon="6.02358">
        <ele>271.60000610352</ele>
        <time>2012-12-01T14:14:59Z</time>
      </trkpt>
      <trkpt lat="43.43712" lon="6.02344">
        <ele>271.60000610352</ele>
        <time>2012-12-01T14:15:05Z</time>
      </trkpt>
      <trkpt lat="43.43712" lon="6.0234">
        <ele>271.60000610352</ele>
        <time>2012-12-01T14:15:07Z</time>
      </trkpt>
      <trkpt lat="43.43721" lon="6.02331">
        <ele>271.60000610352</ele>
        <time>2012-12-01T14:15:13Z</time>
      </trkpt>
      <trkpt lat="43.43729" lon="6.02309">
        <ele>270</ele>
        <time>2012-12-01T14:15:19Z</time>
      </trkpt>
      <trkpt lat="43.43737" lon="6.02297">
        <ele>269</ele>
        <time>2012-12-01T14:15:22Z</time>
      </trkpt>
      <trkpt lat="43.43761" lon="6.02253">
        <ele>265.20001220703</ele>
        <time>2012-12-01T14:15:35Z</time>
      </trkpt>
      <trkpt lat="43.43762" lon="6.02245">
        <ele>264.79998779297</ele>
        <time>2012-12-01T14:15:37Z</time>
      </trkpt>
      <trkpt lat="43.43764" lon="6.02193">
        <ele>263.20001220703</ele>
        <time>2012-12-01T14:15:52Z</time>
      </trkpt>
      <trkpt lat="43.43779" lon="6.02158">
        <ele>263.20001220703</ele>
        <time>2012-12-01T14:16:02Z</time>
      </trkpt>
      <trkpt lat="43.43786" lon="6.02148">
        <ele>263.20001220703</ele>
        <time>2012-12-01T14:16:06Z</time>
      </trkpt>
      <trkpt lat="43.43811" lon="6.02113">
        <ele>263.60000610352</ele>
        <time>2012-12-01T14:16:18Z</time>
      </trkpt>
      <trkpt lat="43.43818" lon="6.02075">
        <ele>265.20001220703</ele>
        <time>2012-12-01T14:16:26Z</time>
      </trkpt>
      <trkpt lat="43.43828" lon="6.02058">
        <ele>265.20001220703</ele>
        <time>2012-12-01T14:16:30Z</time>
      </trkpt>
      <trkpt lat="43.43832" lon="6.02039">
        <ele>265.20001220703</ele>
        <time>2012-12-01T14:16:34Z</time>
      </trkpt>
      <trkpt lat="43.43838" lon="6.01974">
        <ele>265.20001220703</ele>
        <time>2012-12-01T14:16:49Z</time>
      </trkpt>
      <trkpt lat="43.43847" lon="6.01951">
        <ele>265.20001220703</ele>
        <time>2012-12-01T14:16:56Z</time>
      </trkpt>
      <trkpt lat="43.43858" lon="6.01937">
        <ele>265.20001220703</ele>
        <time>2012-12-01T14:17:05Z</time>
      </trkpt>
      <trkpt lat="43.43864" lon="6.01917">
        <ele>265.20001220703</ele>
        <time>2012-12-01T14:17:13Z</time>
      </trkpt>
      <trkpt lat="43.43866" lon="6.019">
        <ele>265.20001220703</ele>
        <time>2012-12-01T14:17:18Z</time>
      </trkpt>
      <trkpt lat="43.43878" lon="6.01845">
        <ele>267.20001220703</ele>
        <time>2012-12-01T14:17:34Z</time>
      </trkpt>
      <trkpt lat="43.43878" lon="6.01841">
        <ele>267.20001220703</ele>
        <time>2012-12-01T14:17:35Z</time>
      </trkpt>
      <trkpt lat="43.4388" lon="6.018">
        <ele>267.20001220703</ele>
        <time>2012-12-01T14:17:49Z</time>
      </trkpt>
      <trkpt lat="43.43888" lon="6.01765">
        <ele>270.60000610352</ele>
        <time>2012-12-01T14:18:03Z</time>
      </trkpt>
      <trkpt lat="43.43887" lon="6.01753">
        <ele>271.39999389648</ele>
        <time>2012-12-01T14:18:08Z</time>
      </trkpt>
      <trkpt lat="43.43876" lon="6.01719">
        <ele>271.79998779297</ele>
        <time>2012-12-01T14:18:21Z</time>
      </trkpt>
      <trkpt lat="43.43874" lon="6.01712">
        <ele>273.20001220703</ele>
        <time>2012-12-01T14:18:24Z</time>
      </trkpt>
      <trkpt lat="43.43871" lon="6.01671">
        <ele>273.60000610352</ele>
        <time>2012-12-01T14:18:38Z</time>
      </trkpt>
      <trkpt lat="43.43867" lon="6.01661">
        <ele>273.60000610352</ele>
        <time>2012-12-01T14:18:42Z</time>
      </trkpt>
      <trkpt lat="43.43803" lon="6.01698">
        <ele>275.60000610352</ele>
        <time>2012-12-01T14:19:11Z</time>
      </trkpt>
      <trkpt lat="43.43782" lon="6.017">
        <ele>276.79998779297</ele>
        <time>2012-12-01T14:19:19Z</time>
      </trkpt>
      <trkpt lat="43.43769" lon="6.01697">
        <ele>277.60000610352</ele>
        <time>2012-12-01T14:19:25Z</time>
      </trkpt>
      <trkpt lat="43.43744" lon="6.01687">
        <ele>279.79998779297</ele>
        <time>2012-12-01T14:19:39Z</time>
      </trkpt>
      <trkpt lat="43.43744" lon="6.01687">
        <ele>279.79998779297</ele>
        <time>2012-12-01T14:19:59Z</time>
      </trkpt>
      <trkpt lat="43.43738" lon="6.01686">
        <ele>279.79998779297</ele>
        <time>2012-12-01T14:24:14Z</time>
      </trkpt>
      <trkpt lat="43.43717" lon="6.01674">
        <ele>280.20001220703</ele>
        <time>2012-12-01T14:24:27Z</time>
      </trkpt>
      <trkpt lat="43.43693" lon="6.0165">
        <ele>281.79998779297</ele>
        <time>2012-12-01T14:24:42Z</time>
      </trkpt>
      <trkpt lat="43.43674" lon="6.01647">
        <ele>282.60000610352</ele>
        <time>2012-12-01T14:24:51Z</time>
      </trkpt>
      <trkpt lat="43.43652" lon="6.01634">
        <ele>283.79998779297</ele>
        <time>2012-12-01T14:25:03Z</time>
      </trkpt>
      <trkpt lat="43.43625" lon="6.01581">
        <ele>285.79998779297</ele>
        <time>2012-12-01T14:25:23Z</time>
      </trkpt>
      <trkpt lat="43.43596" lon="6.01557">
        <ele>285.79998779297</ele>
        <time>2012-12-01T14:25:38Z</time>
      </trkpt>
      <trkpt lat="43.43592" lon="6.01555">
        <ele>286.20001220703</ele>
        <time>2012-12-01T14:25:40Z</time>
      </trkpt>
      <trkpt lat="43.43562" lon="6.01546">
        <ele>289.20001220703</ele>
        <time>2012-12-01T14:25:56Z</time>
      </trkpt>
      <trkpt lat="43.43534" lon="6.01544">
        <ele>290</ele>
        <time>2012-12-01T14:26:11Z</time>
      </trkpt>
      <trkpt lat="43.43513" lon="6.01534">
        <ele>292</ele>
        <time>2012-12-01T14:26:24Z</time>
      </trkpt>
      <trkpt lat="43.43505" lon="6.01532">
        <ele>292</ele>
        <time>2012-12-01T14:26:28Z</time>
      </trkpt>
      <trkpt lat="43.43494" lon="6.01537">
        <ele>292</ele>
        <time>2012-12-01T14:26:35Z</time>
      </trkpt>
      <trkpt lat="43.43464" lon="6.01531">
        <ele>294.20001220703</ele>
        <time>2012-12-01T14:26:53Z</time>
      </trkpt>
      <trkpt lat="43.43449" lon="6.01523">
        <ele>295.79998779297</ele>
        <time>2012-12-01T14:27:02Z</time>
      </trkpt>
      <trkpt lat="43.43448" lon="6.0152">
        <ele>296.20001220703</ele>
        <time>2012-12-01T14:27:04Z</time>
      </trkpt>
      <trkpt lat="43.43446" lon="6.01518">
        <ele>296.20001220703</ele>
        <time>2012-12-01T14:27:21Z</time>
      </trkpt>
      <trkpt lat="43.43446" lon="6.01518">
        <ele>296.20001220703</ele>
        <time>2012-12-01T14:30:02Z</time>
      </trkpt>
      <trkpt lat="43.43439" lon="6.01481">
        <ele>296.20001220703</ele>
        <time>2012-12-01T14:30:45Z</time>
      </trkpt>
      <trkpt lat="43.43435" lon="6.01467">
        <ele>298.20001220703</ele>
        <time>2012-12-01T14:30:50Z</time>
      </trkpt>
      <trkpt lat="43.43432" lon="6.01459">
        <ele>298.20001220703</ele>
        <time>2012-12-01T14:30:54Z</time>
      </trkpt>
      <trkpt lat="43.43431" lon="6.01402">
        <ele>300.39999389648</ele>
        <time>2012-12-01T14:31:16Z</time>
      </trkpt>
      <trkpt lat="43.43421" lon="6.0134">
        <ele>304.20001220703</ele>
        <time>2012-12-01T14:31:40Z</time>
      </trkpt>
      <trkpt lat="43.43438" lon="6.01319">
        <ele>306.79998779297</ele>
        <time>2012-12-01T14:31:55Z</time>
      </trkpt>
      <trkpt lat="43.43438" lon="6.01318">
        <ele>306.79998779297</ele>
        <time>2012-12-01T14:31:56Z</time>
      </trkpt>
      <trkpt lat="43.43439" lon="6.01316">
        <ele>306.79998779297</ele>
        <time>2012-12-01T14:32:03Z</time>
      </trkpt>
      <trkpt lat="43.43442" lon="6.01308">
        <ele>308.79998779297</ele>
        <time>2012-12-01T14:32:11Z</time>
      </trkpt>
      <trkpt lat="43.43442" lon="6.01307">
        <ele>308.79998779297</ele>
        <time>2012-12-01T14:32:23Z</time>
      </trkpt>
      <trkpt lat="43.43452" lon="6.01288">
        <ele>309.20001220703</ele>
        <time>2012-12-01T14:32:36Z</time>
      </trkpt>
      <trkpt lat="43.43456" lon="6.01261">
        <ele>312</ele>
        <time>2012-12-01T14:32:49Z</time>
      </trkpt>
      <trkpt lat="43.43472" lon="6.01234">
        <ele>313</ele>
        <time>2012-12-01T14:33:04Z</time>
      </trkpt>
      <trkpt lat="43.43475" lon="6.01209">
        <ele>315</ele>
        <time>2012-12-01T14:33:15Z</time>
      </trkpt>
      <trkpt lat="43.43476" lon="6.01148">
        <ele>317</ele>
        <time>2012-12-01T14:33:42Z</time>
      </trkpt>
      <trkpt lat="43.43496" lon="6.01107">
        <ele>319</ele>
        <time>2012-12-01T14:34:02Z</time>
      </trkpt>
      <trkpt lat="43.43501" lon="6.01087">
        <ele>321.20001220703</ele>
        <time>2012-12-01T14:34:10Z</time>
      </trkpt>
      <trkpt lat="43.43499" lon="6.01061">
        <ele>321.20001220703</ele>
        <time>2012-12-01T14:34:20Z</time>
      </trkpt>
      <trkpt lat="43.43493" lon="6.01041">
        <ele>323.20001220703</ele>
        <time>2012-12-01T14:34:28Z</time>
      </trkpt>
      <trkpt lat="43.43494" lon="6.01021">
        <ele>323.20001220703</ele>
        <time>2012-12-01T14:34:36Z</time>
      </trkpt>
      <trkpt lat="43.43493" lon="6.01007">
        <ele>324.60000610352</ele>
        <time>2012-12-01T14:34:42Z</time>
      </trkpt>
      <trkpt lat="43.4351" lon="6.00906">
        <ele>334</ele>
        <time>2012-12-01T14:35:26Z</time>
      </trkpt>
      <trkpt lat="43.4353" lon="6.00815">
        <ele>340</ele>
        <time>2012-12-01T14:36:11Z</time>
      </trkpt>
      <trkpt lat="43.4353" lon="6.00815">
        <ele>340</ele>
        <time>2012-12-01T14:36:24Z</time>
      </trkpt>
      <trkpt lat="43.43525" lon="6.00846">
        <ele>340</ele>
        <time>2012-12-01T14:37:18Z</time>
      </trkpt>
      <trkpt lat="43.43515" lon="6.00878">
        <ele>338.20001220703</ele>
        <time>2012-12-01T14:37:26Z</time>
      </trkpt>
      <trkpt lat="43.43516" lon="6.00881">
        <ele>337.79998779297</ele>
        <time>2012-12-01T14:37:27Z</time>
      </trkpt>
      <trkpt lat="43.43517" lon="6.0088">
        <ele>337.79998779297</ele>
        <time>2012-12-01T14:37:33Z</time>
      </trkpt>
      <trkpt lat="43.4352" lon="6.00873">
        <ele>337.79998779297</ele>
        <time>2012-12-01T14:37:41Z</time>
      </trkpt>
      <trkpt lat="43.43526" lon="6.00846">
        <ele>337.79998779297</ele>
        <time>2012-12-01T14:37:53Z</time>
      </trkpt>
      <trkpt lat="43.43531" lon="6.00817">
        <ele>338.60000610352</ele>
        <time>2012-12-01T14:38:06Z</time>
      </trkpt>
      <trkpt lat="43.43538" lon="6.00801">
        <ele>339.79998779297</ele>
        <time>2012-12-01T14:38:21Z</time>
      </trkpt>
      <trkpt lat="43.43548" lon="6.00762">
        <ele>339.79998779297</ele>
        <time>2012-12-01T14:38:37Z</time>
      </trkpt>
      <trkpt lat="43.4355" lon="6.00759">
        <ele>339.79998779297</ele>
        <time>2012-12-01T14:38:38Z</time>
      </trkpt>
      <trkpt lat="43.43579" lon="6.00682">
        <ele>335.60000610352</ele>
        <time>2012-12-01T14:38:52Z</time>
      </trkpt>
      <trkpt lat="43.43575" lon="6.00661">
        <ele>333.79998779297</ele>
        <time>2012-12-01T14:38:55Z</time>
      </trkpt>
      <trkpt lat="43.43559" lon="6.00642">
        <ele>331.20001220703</ele>
        <time>2012-12-01T14:38:59Z</time>
      </trkpt>
      <trkpt lat="43.43555" lon="6.00638">
        <ele>330.60000610352</ele>
        <time>2012-12-01T14:39:00Z</time>
      </trkpt>
      <trkpt lat="43.43557" lon="6.00605">
        <ele>327.20001220703</ele>
        <time>2012-12-01T14:39:06Z</time>
      </trkpt>
      <trkpt lat="43.43559" lon="6.00598">
        <ele>326.79998779297</ele>
        <time>2012-12-01T14:39:07Z</time>
      </trkpt>
      <trkpt lat="43.43563" lon="6.00589">
        <ele>326.20001220703</ele>
        <time>2012-12-01T14:39:10Z</time>
      </trkpt>
      <trkpt lat="43.43563" lon="6.00588">
        <ele>325.79998779297</ele>
        <time>2012-12-01T14:39:11Z</time>
      </trkpt>
      <trkpt lat="43.43565" lon="6.00587">
        <ele>324.60000610352</ele>
        <time>2012-12-01T14:39:14Z</time>
      </trkpt>
      <trkpt lat="43.43572" lon="6.00577">
        <ele>324.60000610352</ele>
        <time>2012-12-01T14:39:17Z</time>
      </trkpt>
      <trkpt lat="43.43585" lon="6.00552">
        <ele>323.39999389648</ele>
        <time>2012-12-01T14:39:22Z</time>
      </trkpt>
      <trkpt lat="43.43609" lon="6.00522">
        <ele>321.39999389648</ele>
        <time>2012-12-01T14:39:28Z</time>
      </trkpt>
      <trkpt lat="43.43625" lon="6.00468">
        <ele>319.20001220703</ele>
        <time>2012-12-01T14:39:35Z</time>
      </trkpt>
      <trkpt lat="43.43623" lon="6.00427">
        <ele>317.39999389648</ele>
        <time>2012-12-01T14:39:40Z</time>
      </trkpt>
      <trkpt lat="43.43609" lon="6.00393">
        <ele>315.20001220703</ele>
        <time>2012-12-01T14:39:45Z</time>
      </trkpt>
      <trkpt lat="43.43609" lon="6.00371">
        <ele>314</ele>
        <time>2012-12-01T14:39:48Z</time>
      </trkpt>
      <trkpt lat="43.43615" lon="6.0035">
        <ele>313</ele>
        <time>2012-12-01T14:39:51Z</time>
      </trkpt>
      <trkpt lat="43.43629" lon="6.00323">
        <ele>311.79998779297</ele>
        <time>2012-12-01T14:39:56Z</time>
      </trkpt>
      <trkpt lat="43.43656" lon="6.0029">
        <ele>309.39999389648</ele>
        <time>2012-12-01T14:40:03Z</time>
      </trkpt>
      <trkpt lat="43.4367" lon="6.00264">
        <ele>307.39999389648</ele>
        <time>2012-12-01T14:40:10Z</time>
      </trkpt>
      <trkpt lat="43.43673" lon="6.0026">
        <ele>307.39999389648</ele>
        <time>2012-12-01T14:40:12Z</time>
      </trkpt>
      <trkpt lat="43.43679" lon="6.00257">
        <ele>307.39999389648</ele>
        <time>2012-12-01T14:40:18Z</time>
      </trkpt>
      <trkpt lat="43.43679" lon="6.00257">
        <ele>307.39999389648</ele>
        <time>2012-12-01T14:40:25Z</time>
      </trkpt>
      <trkpt lat="43.43693" lon="6.00265">
        <ele>307.39999389648</ele>
        <time>2012-12-01T14:40:38Z</time>
      </trkpt>
      <trkpt lat="43.43718" lon="6.00267">
        <ele>306.60000610352</ele>
        <time>2012-12-01T14:40:47Z</time>
      </trkpt>
      <trkpt lat="43.43737" lon="6.00258">
        <ele>305.39999389648</ele>
        <time>2012-12-01T14:40:58Z</time>
      </trkpt>
      <trkpt lat="43.43734" lon="6.0026">
        <ele>305.39999389648</ele>
        <time>2012-12-01T14:41:04Z</time>
      </trkpt>
      <trkpt lat="43.43725" lon="6.00264">
        <ele>305.39999389648</ele>
        <time>2012-12-01T14:41:10Z</time>
      </trkpt>
      <trkpt lat="43.43694" lon="6.00267">
        <ele>305.39999389648</ele>
        <time>2012-12-01T14:41:23Z</time>
      </trkpt>
      <trkpt lat="43.43684" lon="6.00262">
        <ele>305.39999389648</ele>
        <time>2012-12-01T14:41:28Z</time>
      </trkpt>
      <trkpt lat="43.43677" lon="6.00254">
        <ele>305.39999389648</ele>
        <time>2012-12-01T14:41:34Z</time>
      </trkpt>
      <trkpt lat="43.43658" lon="6.00234">
        <ele>305.39999389648</ele>
        <time>2012-12-01T14:41:46Z</time>
      </trkpt>
      <trkpt lat="43.43648" lon="6.00219">
        <ele>307</ele>
        <time>2012-12-01T14:41:54Z</time>
      </trkpt>
      <trkpt lat="43.4364" lon="6.00217">
        <ele>307.39999389648</ele>
        <time>2012-12-01T14:41:58Z</time>
      </trkpt>
      <trkpt lat="43.43604" lon="6.00203">
        <ele>309.60000610352</ele>
        <time>2012-12-01T14:42:20Z</time>
      </trkpt>
      <trkpt lat="43.43584" lon="6.00196">
        <ele>310.39999389648</ele>
        <time>2012-12-01T14:42:32Z</time>
      </trkpt>
      <trkpt lat="43.43556" lon="6.00189">
        <ele>313.79998779297</ele>
        <time>2012-12-01T14:42:49Z</time>
      </trkpt>
      <trkpt lat="43.43535" lon="6.00188">
        <ele>314.60000610352</ele>
        <time>2012-12-01T14:43:01Z</time>
      </trkpt>
      <trkpt lat="43.435" lon="6.00174">
        <ele>317.79998779297</ele>
        <time>2012-12-01T14:44:50Z</time>
      </trkpt>
      <trkpt lat="43.43469" lon="6.00171">
        <ele>320.20001220703</ele>
        <time>2012-12-01T14:45:25Z</time>
      </trkpt>
      <trkpt lat="43.43469" lon="6.00171">
        <ele>320.60000610352</ele>
        <time>2012-12-01T14:45:37Z</time>
      </trkpt>
      <trkpt lat="43.43462" lon="6.00173">
        <ele>322.20001220703</ele>
        <time>2012-12-01T14:45:58Z</time>
      </trkpt>
      <trkpt lat="43.43451" lon="6.0018">
        <ele>322.60000610352</ele>
        <time>2012-12-01T14:46:28Z</time>
      </trkpt>
      <trkpt lat="43.43448" lon="6.00184">
        <ele>324.20001220703</ele>
        <time>2012-12-01T14:46:47Z</time>
      </trkpt>
      <trkpt lat="43.4344" lon="6.00186">
        <ele>324.20001220703</ele>
        <time>2012-12-01T14:47:01Z</time>
      </trkpt>
      <trkpt lat="43.43437" lon="6.00185">
        <ele>324.20001220703</ele>
        <time>2012-12-01T14:47:09Z</time>
      </trkpt>
      <trkpt lat="43.43437" lon="6.00185">
        <ele>326.20001220703</ele>
        <time>2012-12-01T14:47:23Z</time>
      </trkpt>
      <trkpt lat="43.43436" lon="6.00185">
        <ele>326.20001220703</ele>
        <time>2012-12-01T14:47:28Z</time>
      </trkpt>
      <trkpt lat="43.43429" lon="6.0018">
        <ele>326.20001220703</ele>
        <time>2012-12-01T14:47:38Z</time>
      </trkpt>
      <trkpt lat="43.43409" lon="6.00176">
        <ele>326.20001220703</ele>
        <time>2012-12-01T14:47:49Z</time>
      </trkpt>
      <trkpt lat="43.43407" lon="6.00176">
        <ele>326.20001220703</ele>
        <time>2012-12-01T14:47:50Z</time>
      </trkpt>
      <trkpt lat="43.43398" lon="6.00162">
        <ele>328.39999389648</ele>
        <time>2012-12-01T14:48:00Z</time>
      </trkpt>
      <trkpt lat="43.43391" lon="6.00154">
        <ele>329.39999389648</ele>
        <time>2012-12-01T14:48:06Z</time>
      </trkpt>
      <trkpt lat="43.43375" lon="6.00153">
        <ele>331</ele>
        <time>2012-12-01T14:48:15Z</time>
      </trkpt>
      <trkpt lat="43.43371" lon="6.00149">
        <ele>332.79998779297</ele>
        <time>2012-12-01T14:48:18Z</time>
      </trkpt>
      <trkpt lat="43.43367" lon="6.00146">
        <ele>332.79998779297</ele>
        <time>2012-12-01T14:49:11Z</time>
      </trkpt>
      <trkpt lat="43.43365" lon="6.00142">
        <ele>332.79998779297</ele>
        <time>2012-12-01T14:49:20Z</time>
      </trkpt>
      <trkpt lat="43.43344" lon="6.0009">
        <ele>337</ele>
        <time>2012-12-01T14:49:50Z</time>
      </trkpt>
      <trkpt lat="43.43344" lon="6.00078">
        <ele>339</ele>
        <time>2012-12-01T14:49:56Z</time>
      </trkpt>
      <trkpt lat="43.43346" lon="6.00071">
        <ele>339</ele>
        <time>2012-12-01T14:50:01Z</time>
      </trkpt>
      <trkpt lat="43.43343" lon="6.00066">
        <ele>339</ele>
        <time>2012-12-01T14:50:06Z</time>
      </trkpt>
      <trkpt lat="43.43343" lon="6.00066">
        <ele>341.20001220703</ele>
        <time>2012-12-01T14:50:15Z</time>
      </trkpt>
      <trkpt lat="43.4334" lon="6.00064">
        <ele>341.20001220703</ele>
        <time>2012-12-01T14:50:20Z</time>
      </trkpt>
      <trkpt lat="43.4334" lon="6.00064">
        <ele>341.20001220703</ele>
        <time>2012-12-01T14:50:28Z</time>
      </trkpt>
      <trkpt lat="43.43333" lon="6.00064">
        <ele>341.20001220703</ele>
        <time>2012-12-01T14:50:47Z</time>
      </trkpt>
      <trkpt lat="43.43332" lon="6.00056">
        <ele>341.20001220703</ele>
        <time>2012-12-01T14:51:33Z</time>
      </trkpt>
      <trkpt lat="43.43322" lon="6.00047">
        <ele>343.20001220703</ele>
        <time>2012-12-01T14:51:46Z</time>
      </trkpt>
      <trkpt lat="43.43321" lon="6.00046">
        <ele>344.79998779297</ele>
        <time>2012-12-01T14:51:55Z</time>
      </trkpt>
      <trkpt lat="43.43317" lon="6.00038">
        <ele>345.20001220703</ele>
        <time>2012-12-01T14:52:00Z</time>
      </trkpt>
      <trkpt lat="43.43314" lon="6.00039">
        <ele>345.20001220703</ele>
        <time>2012-12-01T14:52:02Z</time>
      </trkpt>
      <trkpt lat="43.43312" lon="6.00039">
        <ele>345.20001220703</ele>
        <time>2012-12-01T14:52:06Z</time>
      </trkpt>
      <trkpt lat="43.43312" lon="6.00039">
        <ele>345.20001220703</ele>
        <time>2012-12-01T14:52:18Z</time>
      </trkpt>
      <trkpt lat="43.43303" lon="6.00036">
        <ele>347.20001220703</ele>
        <time>2012-12-01T14:52:33Z</time>
      </trkpt>
      <trkpt lat="43.43293" lon="6.00038">
        <ele>349</ele>
        <time>2012-12-01T14:52:45Z</time>
      </trkpt>
      <trkpt lat="43.43291" lon="6.00037">
        <ele>349.39999389648</ele>
        <time>2012-12-01T14:52:48Z</time>
      </trkpt>
      <trkpt lat="43.43288" lon="6.00035">
        <ele>351.39999389648</ele>
        <time>2012-12-01T14:53:02Z</time>
      </trkpt>
      <trkpt lat="43.43287" lon="6.00033">
        <ele>351.39999389648</ele>
        <time>2012-12-01T14:53:06Z</time>
      </trkpt>
      <trkpt lat="43.43287" lon="6.00033">
        <ele>351.39999389648</ele>
        <time>2012-12-01T14:53:13Z</time>
      </trkpt>
      <trkpt lat="43.4328" lon="6.00031">
        <ele>353.39999389648</ele>
        <time>2012-12-01T14:53:25Z</time>
      </trkpt>
      <trkpt lat="43.43278" lon="6.00029">
        <ele>353.39999389648</ele>
        <time>2012-12-01T14:53:35Z</time>
      </trkpt>
      <trkpt lat="43.43278" lon="6.00029">
        <ele>354.20001220703</ele>
        <time>2012-12-01T14:53:40Z</time>
      </trkpt>
      <trkpt lat="43.43276" lon="6.00029">
        <ele>355.39999389648</ele>
        <time>2012-12-01T14:53:43Z</time>
      </trkpt>
      <trkpt lat="43.43276" lon="6.00029">
        <ele>355.39999389648</ele>
        <time>2012-12-01T14:53:56Z</time>
      </trkpt>
      <trkpt lat="43.43265" lon="6.00026">
        <ele>355.39999389648</ele>
        <time>2012-12-01T14:54:20Z</time>
      </trkpt>
      <trkpt lat="43.43264" lon="6.00027">
        <ele>355.79998779297</ele>
        <time>2012-12-01T14:54:22Z</time>
      </trkpt>
      <trkpt lat="43.43262" lon="6.00028">
        <ele>357.60000610352</ele>
        <time>2012-12-01T14:54:33Z</time>
      </trkpt>
      <trkpt lat="43.43255" lon="6.00028">
        <ele>359.60000610352</ele>
        <time>2012-12-01T14:54:45Z</time>
      </trkpt>
      <trkpt lat="43.43254" lon="6.00027">
        <ele>359.60000610352</ele>
        <time>2012-12-01T14:54:48Z</time>
      </trkpt>
      <trkpt lat="43.43252" lon="6.00026">
        <ele>360</ele>
        <time>2012-12-01T14:55:00Z</time>
      </trkpt>
      <trkpt lat="43.43249" lon="6.00025">
        <ele>361.39999389648</ele>
        <time>2012-12-01T14:55:03Z</time>
      </trkpt>
      <trkpt lat="43.43249" lon="6.00025">
        <ele>361.79998779297</ele>
        <time>2012-12-01T14:55:08Z</time>
      </trkpt>
      <trkpt lat="43.43243" lon="6.00023">
        <ele>363.39999389648</ele>
        <time>2012-12-01T14:55:20Z</time>
      </trkpt>
      <trkpt lat="43.43242" lon="6.00024">
        <ele>364</ele>
        <time>2012-12-01T14:55:29Z</time>
      </trkpt>
      <trkpt lat="43.43242" lon="6.00025">
        <ele>366</ele>
        <time>2012-12-01T14:55:57Z</time>
      </trkpt>
      <trkpt lat="43.43232" lon="6.00025">
        <ele>368</ele>
        <time>2012-12-01T14:56:27Z</time>
      </trkpt>
      <trkpt lat="43.43216" lon="6.00024">
        <ele>371.39999389648</ele>
        <time>2012-12-01T14:56:50Z</time>
      </trkpt>
      <trkpt lat="43.43216" lon="6.00024">
        <ele>374.20001220703</ele>
        <time>2012-12-01T14:57:27Z</time>
      </trkpt>
      <trkpt lat="43.4321" lon="6.00023">
        <ele>374.60000610352</ele>
        <time>2012-12-01T14:57:37Z</time>
      </trkpt>
      <trkpt lat="43.43207" lon="6.00023">
        <ele>376.39999389648</ele>
        <time>2012-12-01T14:57:41Z</time>
      </trkpt>
      <trkpt lat="43.43207" lon="6.00023">
        <ele>376.39999389648</ele>
        <time>2012-12-01T14:57:58Z</time>
      </trkpt>
      <trkpt lat="43.43205" lon="6.00022">
        <ele>376.39999389648</ele>
        <time>2012-12-01T14:59:05Z</time>
      </trkpt>
      <trkpt lat="43.43188" lon="6.00015">
        <ele>378.60000610352</ele>
        <time>2012-12-01T14:59:18Z</time>
      </trkpt>
      <trkpt lat="43.43185" lon="6.00015">
        <ele>378.60000610352</ele>
        <time>2012-12-01T14:59:20Z</time>
      </trkpt>
      <trkpt lat="43.43183" lon="6.00015">
        <ele>380.79998779297</ele>
        <time>2012-12-01T14:59:33Z</time>
      </trkpt>
      <trkpt lat="43.43183" lon="6.00015">
        <ele>380.79998779297</ele>
        <time>2012-12-01T15:00:05Z</time>
      </trkpt>
      <trkpt lat="43.43157" lon="6.00013">
        <ele>382.79998779297</ele>
        <time>2012-12-01T15:00:25Z</time>
      </trkpt>
      <trkpt lat="43.43153" lon="6.00013">
        <ele>385</ele>
        <time>2012-12-01T15:00:35Z</time>
      </trkpt>
      <trkpt lat="43.43146" lon="6.00009">
        <ele>385</ele>
        <time>2012-12-01T15:00:42Z</time>
      </trkpt>
      <trkpt lat="43.43133" lon="6.00009">
        <ele>385</ele>
        <time>2012-12-01T15:00:51Z</time>
      </trkpt>
      <trkpt lat="43.43129" lon="6.00006">
        <ele>385.39999389648</ele>
        <time>2012-12-01T15:00:54Z</time>
      </trkpt>
      <trkpt lat="43.43129" lon="6.00006">
        <ele>385.79998779297</ele>
        <time>2012-12-01T15:00:55Z</time>
      </trkpt>
      <trkpt lat="43.43127" lon="6.00008">
        <ele>387</ele>
        <time>2012-12-01T15:02:15Z</time>
      </trkpt>
      <trkpt lat="43.43117" lon="6.00013">
        <ele>388.20001220703</ele>
        <time>2012-12-01T15:02:21Z</time>
      </trkpt>
      <trkpt lat="43.43106" lon="6.00011">
        <ele>389</ele>
        <time>2012-12-01T15:02:28Z</time>
      </trkpt>
      <trkpt lat="43.43092" lon="6.00014">
        <ele>389</ele>
        <time>2012-12-01T15:02:38Z</time>
      </trkpt>
      <trkpt lat="43.4309" lon="6.00018">
        <ele>389.39999389648</ele>
        <time>2012-12-01T15:02:41Z</time>
      </trkpt>
      <trkpt lat="43.43088" lon="6.0002">
        <ele>390.60000610352</ele>
        <time>2012-12-01T15:02:43Z</time>
      </trkpt>
      <trkpt lat="43.43071" lon="6.00026">
        <ele>392.79998779297</ele>
        <time>2012-12-01T15:02:57Z</time>
      </trkpt>
      <trkpt lat="43.43052" lon="6.00042">
        <ele>393.20001220703</ele>
        <time>2012-12-01T15:03:13Z</time>
      </trkpt>
      <trkpt lat="43.43051" lon="6.00047">
        <ele>394.79998779297</ele>
        <time>2012-12-01T15:03:18Z</time>
      </trkpt>
      <trkpt lat="43.4305" lon="6.00048">
        <ele>395.20001220703</ele>
        <time>2012-12-01T15:03:40Z</time>
      </trkpt>
      <trkpt lat="43.4305" lon="6.00102">
        <ele>397.20001220703</ele>
        <time>2012-12-01T15:04:16Z</time>
      </trkpt>
      <trkpt lat="43.43052" lon="6.00117">
        <ele>397.20001220703</ele>
        <time>2012-12-01T15:04:21Z</time>
      </trkpt>
      <trkpt lat="43.43053" lon="6.00163">
        <ele>396.39999389648</ele>
        <time>2012-12-01T15:04:34Z</time>
      </trkpt>
      <trkpt lat="43.43047" lon="6.00171">
        <ele>395.20001220703</ele>
        <time>2012-12-01T15:04:37Z</time>
      </trkpt>
      <trkpt lat="43.43019" lon="6.00188">
        <ele>395.20001220703</ele>
        <time>2012-12-01T15:04:53Z</time>
      </trkpt>
      <trkpt lat="43.42995" lon="6.0021">
        <ele>396</ele>
        <time>2012-12-01T15:05:08Z</time>
      </trkpt>
      <trkpt lat="43.42972" lon="6.00273">
        <ele>401.79998779297</ele>
        <time>2012-12-01T15:05:43Z</time>
      </trkpt>
      <trkpt lat="43.42968" lon="6.00327">
        <ele>407.60000610352</ele>
        <time>2012-12-01T15:06:14Z</time>
      </trkpt>
      <trkpt lat="43.42963" lon="6.00341">
        <ele>407.60000610352</ele>
        <time>2012-12-01T15:06:23Z</time>
      </trkpt>
      <trkpt lat="43.42958" lon="6.00351">
        <ele>409.60000610352</ele>
        <time>2012-12-01T15:06:31Z</time>
      </trkpt>
      <trkpt lat="43.42953" lon="6.00354">
        <ele>409.60000610352</ele>
        <time>2012-12-01T15:06:35Z</time>
      </trkpt>
      <trkpt lat="43.42926" lon="6.00375">
        <ele>413.60000610352</ele>
        <time>2012-12-01T15:07:00Z</time>
      </trkpt>
      <trkpt lat="43.42913" lon="6.00388">
        <ele>416.20001220703</ele>
        <time>2012-12-01T15:07:14Z</time>
      </trkpt>
      <trkpt lat="43.42909" lon="6.00398">
        <ele>417.79998779297</ele>
        <time>2012-12-01T15:07:22Z</time>
      </trkpt>
      <trkpt lat="43.42909" lon="6.00402">
        <ele>417.79998779297</ele>
        <time>2012-12-01T15:07:32Z</time>
      </trkpt>
      <trkpt lat="43.42911" lon="6.00429">
        <ele>417.79998779297</ele>
        <time>2012-12-01T15:11:28Z</time>
      </trkpt>
      <trkpt lat="43.42892" lon="6.00484">
        <ele>417.79998779297</ele>
        <time>2012-12-01T15:11:54Z</time>
      </trkpt>
      <trkpt lat="43.42879" lon="6.00503">
        <ele>417.79998779297</ele>
        <time>2012-12-01T15:12:04Z</time>
      </trkpt>
      <trkpt lat="43.42879" lon="6.00506">
        <ele>417.79998779297</ele>
        <time>2012-12-01T15:12:05Z</time>
      </trkpt>
      <trkpt lat="43.42876" lon="6.00561">
        <ele>412.20001220703</ele>
        <time>2012-12-01T15:12:19Z</time>
      </trkpt>
      <trkpt lat="43.42877" lon="6.00586">
        <ele>409</ele>
        <time>2012-12-01T15:12:27Z</time>
      </trkpt>
      <trkpt lat="43.42871" lon="6.00608">
        <ele>405.39999389648</ele>
        <time>2012-12-01T15:12:35Z</time>
      </trkpt>
      <trkpt lat="43.4287" lon="6.0063">
        <ele>402.60000610352</ele>
        <time>2012-12-01T15:12:41Z</time>
      </trkpt>
      <trkpt lat="43.42863" lon="6.0066">
        <ele>398</ele>
        <time>2012-12-01T15:12:49Z</time>
      </trkpt>
      <trkpt lat="43.4284" lon="6.00759">
        <ele>388.39999389648</ele>
        <time>2012-12-01T15:13:20Z</time>
      </trkpt>
      <trkpt lat="43.4284" lon="6.00759">
        <ele>388.39999389648</ele>
        <time>2012-12-01T15:13:32Z</time>
      </trkpt>
      <trkpt lat="43.42838" lon="6.0077">
        <ele>388.39999389648</ele>
        <time>2012-12-01T15:14:05Z</time>
      </trkpt>
      <trkpt lat="43.42828" lon="6.0078">
        <ele>388.39999389648</ele>
        <time>2012-12-01T15:14:11Z</time>
      </trkpt>
      <trkpt lat="43.42815" lon="6.00782">
        <ele>388.39999389648</ele>
        <time>2012-12-01T15:14:20Z</time>
      </trkpt>
      <trkpt lat="43.42803" lon="6.0078">
        <ele>388.39999389648</ele>
        <time>2012-12-01T15:14:29Z</time>
      </trkpt>
      <trkpt lat="43.42775" lon="6.00774">
        <ele>393.39999389648</ele>
        <time>2012-12-01T15:14:50Z</time>
      </trkpt>
      <trkpt lat="43.42751" lon="6.00753">
        <ele>397.39999389648</ele>
        <time>2012-12-01T15:15:15Z</time>
      </trkpt>
      <trkpt lat="43.42749" lon="6.00752">
        <ele>397.79998779297</ele>
        <time>2012-12-01T15:15:16Z</time>
      </trkpt>
      <trkpt lat="43.4273" lon="6.00755">
        <ele>398.60000610352</ele>
        <time>2012-12-01T15:15:31Z</time>
      </trkpt>
      <trkpt lat="43.42715" lon="6.00753">
        <ele>399</ele>
        <time>2012-12-01T15:15:42Z</time>
      </trkpt>
      <trkpt lat="43.4271" lon="6.00755">
        <ele>400.60000610352</ele>
        <time>2012-12-01T15:15:46Z</time>
      </trkpt>
      <trkpt lat="43.427" lon="6.00775">
        <ele>400.60000610352</ele>
        <time>2012-12-01T15:15:56Z</time>
      </trkpt>
      <trkpt lat="43.42698" lon="6.0078">
        <ele>400.60000610352</ele>
        <time>2012-12-01T15:15:58Z</time>
      </trkpt>
      <trkpt lat="43.42682" lon="6.00791">
        <ele>400.60000610352</ele>
        <time>2012-12-01T15:16:07Z</time>
      </trkpt>
      <trkpt lat="43.42663" lon="6.00813">
        <ele>400.60000610352</ele>
        <time>2012-12-01T15:16:19Z</time>
      </trkpt>
      <trkpt lat="43.42659" lon="6.00812">
        <ele>400.60000610352</ele>
        <time>2012-12-01T15:16:21Z</time>
      </trkpt>
      <trkpt lat="43.42649" lon="6.00803">
        <ele>400.60000610352</ele>
        <time>2012-12-01T15:16:27Z</time>
      </trkpt>
      <trkpt lat="43.42643" lon="6.00804">
        <ele>400.60000610352</ele>
        <time>2012-12-01T15:17:37Z</time>
      </trkpt>
      <trkpt lat="43.42642" lon="6.00816">
        <ele>400.60000610352</ele>
        <time>2012-12-01T15:17:45Z</time>
      </trkpt>
      <trkpt lat="43.42637" lon="6.00828">
        <ele>400.60000610352</ele>
        <time>2012-12-01T15:17:51Z</time>
      </trkpt>
      <trkpt lat="43.42628" lon="6.00835">
        <ele>400.60000610352</ele>
        <time>2012-12-01T15:17:56Z</time>
      </trkpt>
      <trkpt lat="43.42619" lon="6.00851">
        <ele>400.60000610352</ele>
        <time>2012-12-01T15:18:02Z</time>
      </trkpt>
      <trkpt lat="43.42614" lon="6.00915">
        <ele>400.60000610352</ele>
        <time>2012-12-01T15:18:21Z</time>
      </trkpt>
      <trkpt lat="43.42602" lon="6.00974">
        <ele>400.60000610352</ele>
        <time>2012-12-01T15:18:36Z</time>
      </trkpt>
      <trkpt lat="43.426" lon="6.00992">
        <ele>400.60000610352</ele>
        <time>2012-12-01T15:18:41Z</time>
      </trkpt>
      <trkpt lat="43.42601" lon="6.01063">
        <ele>399</ele>
        <time>2012-12-01T15:18:53Z</time>
      </trkpt>
      <trkpt lat="43.42601" lon="6.01069">
        <ele>398.60000610352</ele>
        <time>2012-12-01T15:18:54Z</time>
      </trkpt>
      <trkpt lat="43.42598" lon="6.01077">
        <ele>398.60000610352</ele>
        <time>2012-12-01T15:18:56Z</time>
      </trkpt>
      <trkpt lat="43.42583" lon="6.01084">
        <ele>398.60000610352</ele>
        <time>2012-12-01T15:19:03Z</time>
      </trkpt>
      <trkpt lat="43.4258" lon="6.0109">
        <ele>398.20001220703</ele>
        <time>2012-12-01T15:19:06Z</time>
      </trkpt>
      <trkpt lat="43.42583" lon="6.0113">
        <ele>396.39999389648</ele>
        <time>2012-12-01T15:19:17Z</time>
      </trkpt>
      <trkpt lat="43.42576" lon="6.01135">
        <ele>396.39999389648</ele>
        <time>2012-12-01T15:19:21Z</time>
      </trkpt>
      <trkpt lat="43.42545" lon="6.01135">
        <ele>393.79998779297</ele>
        <time>2012-12-01T15:19:30Z</time>
      </trkpt>
      <trkpt lat="43.42539" lon="6.01137">
        <ele>392.79998779297</ele>
        <time>2012-12-01T15:19:32Z</time>
      </trkpt>
      <trkpt lat="43.42537" lon="6.01139">
        <ele>392.39999389648</ele>
        <time>2012-12-01T15:19:33Z</time>
      </trkpt>
      <trkpt lat="43.42532" lon="6.01194">
        <ele>387</ele>
        <time>2012-12-01T15:19:46Z</time>
      </trkpt>
      <trkpt lat="43.42531" lon="6.012">
        <ele>386.20001220703</ele>
        <time>2012-12-01T15:19:48Z</time>
      </trkpt>
      <trkpt lat="43.4252" lon="6.0121">
        <ele>385.20001220703</ele>
        <time>2012-12-01T15:19:54Z</time>
      </trkpt>
      <trkpt lat="43.425" lon="6.01222">
        <ele>380.39999389648</ele>
        <time>2012-12-01T15:20:04Z</time>
      </trkpt>
      <trkpt lat="43.42495" lon="6.01225">
        <ele>379.39999389648</ele>
        <time>2012-12-01T15:20:06Z</time>
      </trkpt>
      <trkpt lat="43.42485" lon="6.0125">
        <ele>376.20001220703</ele>
        <time>2012-12-01T15:20:13Z</time>
      </trkpt>
      <trkpt lat="43.4248" lon="6.01253">
        <ele>376.20001220703</ele>
        <time>2012-12-01T15:20:16Z</time>
      </trkpt>
      <trkpt lat="43.42479" lon="6.01254">
        <ele>376.20001220703</ele>
        <time>2012-12-01T15:20:24Z</time>
      </trkpt>
      <trkpt lat="43.42478" lon="6.01255">
        <ele>376.20001220703</ele>
        <time>2012-12-01T15:20:39Z</time>
      </trkpt>
      <trkpt lat="43.42478" lon="6.01255">
        <ele>374.20001220703</ele>
        <time>2012-12-01T15:21:42Z</time>
      </trkpt>
      <trkpt lat="43.42477" lon="6.01256">
        <ele>374.20001220703</ele>
        <time>2012-12-01T15:22:24Z</time>
      </trkpt>
      <trkpt lat="43.42482" lon="6.01289">
        <ele>375.79998779297</ele>
        <time>2012-12-01T15:22:42Z</time>
      </trkpt>
      <trkpt lat="43.42494" lon="6.01356">
        <ele>384.39999389648</ele>
        <time>2012-12-01T15:23:18Z</time>
      </trkpt>
      <trkpt lat="43.42494" lon="6.01388">
        <ele>386.79998779297</ele>
        <time>2012-12-01T15:23:38Z</time>
      </trkpt>
      <trkpt lat="43.42493" lon="6.01402">
        <ele>388.79998779297</ele>
        <time>2012-12-01T15:23:46Z</time>
      </trkpt>
      <trkpt lat="43.42489" lon="6.01433">
        <ele>388.79998779297</ele>
        <time>2012-12-01T15:24:02Z</time>
      </trkpt>
      <trkpt lat="43.42484" lon="6.01492">
        <ele>390.79998779297</ele>
        <time>2012-12-01T15:24:23Z</time>
      </trkpt>
      <trkpt lat="43.42486" lon="6.01516">
        <ele>390.79998779297</ele>
        <time>2012-12-01T15:24:31Z</time>
      </trkpt>
      <trkpt lat="43.42503" lon="6.01585">
        <ele>393</ele>
        <time>2012-12-01T15:24:54Z</time>
      </trkpt>
      <trkpt lat="43.42505" lon="6.01605">
        <ele>393</ele>
        <time>2012-12-01T15:25:00Z</time>
      </trkpt>
      <trkpt lat="43.42501" lon="6.01624">
        <ele>393.79998779297</ele>
        <time>2012-12-01T15:25:07Z</time>
      </trkpt>
      <trkpt lat="43.42484" lon="6.01648">
        <ele>395</ele>
        <time>2012-12-01T15:25:17Z</time>
      </trkpt>
      <trkpt lat="43.42477" lon="6.01658">
        <ele>395</ele>
        <time>2012-12-01T15:25:20Z</time>
      </trkpt>
      <trkpt lat="43.4247" lon="6.01675">
        <ele>395</ele>
        <time>2012-12-01T15:25:25Z</time>
      </trkpt>
      <trkpt lat="43.42448" lon="6.01741">
        <ele>395</ele>
        <time>2012-12-01T15:25:44Z</time>
      </trkpt>
      <trkpt lat="43.42436" lon="6.01812">
        <ele>395</ele>
        <time>2012-12-01T15:26:05Z</time>
      </trkpt>
      <trkpt lat="43.4243" lon="6.01852">
        <ele>396.79998779297</ele>
        <time>2012-12-01T15:26:19Z</time>
      </trkpt>
      <trkpt lat="43.42423" lon="6.01891">
        <ele>397.20001220703</ele>
        <time>2012-12-01T15:26:32Z</time>
      </trkpt>
      <trkpt lat="43.4241" lon="6.01951">
        <ele>397.20001220703</ele>
        <time>2012-12-01T15:26:50Z</time>
      </trkpt>
      <trkpt lat="43.42412" lon="6.01972">
        <ele>397.20001220703</ele>
        <time>2012-12-01T15:26:58Z</time>
      </trkpt>
      <trkpt lat="43.42424" lon="6.0199">
        <ele>399.39999389648</ele>
        <time>2012-12-01T15:27:11Z</time>
      </trkpt>
      <trkpt lat="43.42434" lon="6.01995">
        <ele>401.79998779297</ele>
        <time>2012-12-01T15:27:19Z</time>
      </trkpt>
      <trkpt lat="43.42434" lon="6.01995">
        <ele>403.39999389648</ele>
        <time>2012-12-01T15:27:38Z</time>
      </trkpt>
      <trkpt lat="43.42433" lon="6.01991">
        <ele>403.39999389648</ele>
        <time>2012-12-01T15:27:48Z</time>
      </trkpt>
      <trkpt lat="43.4244" lon="6.01992">
        <ele>403.39999389648</ele>
        <time>2012-12-01T15:28:14Z</time>
      </trkpt>
      <trkpt lat="43.42445" lon="6.01995">
        <ele>403.79998779297</ele>
        <time>2012-12-01T15:28:18Z</time>
      </trkpt>
      <trkpt lat="43.4245" lon="6.01997">
        <ele>405.60000610352</ele>
        <time>2012-12-01T15:28:24Z</time>
      </trkpt>
      <trkpt lat="43.42473" lon="6.01999">
        <ele>410</ele>
        <time>2012-12-01T15:28:44Z</time>
      </trkpt>
      <trkpt lat="43.42479" lon="6.02003">
        <ele>410</ele>
        <time>2012-12-01T15:28:51Z</time>
      </trkpt>
      <trkpt lat="43.4248" lon="6.02004">
        <ele>410.39999389648</ele>
        <time>2012-12-01T15:28:53Z</time>
      </trkpt>
      <trkpt lat="43.4248" lon="6.02004">
        <ele>412</ele>
        <time>2012-12-01T15:29:16Z</time>
      </trkpt>
      <trkpt lat="43.42481" lon="6.02004">
        <ele>412</ele>
        <time>2012-12-01T15:30:54Z</time>
      </trkpt>
      <trkpt lat="43.42477" lon="6.02176">
        <ele>403.79998779297</ele>
        <time>2012-12-01T15:31:37Z</time>
      </trkpt>
      <trkpt lat="43.42473" lon="6.02287">
        <ele>400.60000610352</ele>
        <time>2012-12-01T15:31:54Z</time>
      </trkpt>
      <trkpt lat="43.42466" lon="6.02322">
        <ele>399.39999389648</ele>
        <time>2012-12-01T15:31:59Z</time>
      </trkpt>
      <trkpt lat="43.42465" lon="6.0238">
        <ele>396</ele>
        <time>2012-12-01T15:32:05Z</time>
      </trkpt>
      <trkpt lat="43.42461" lon="6.02397">
        <ele>394.60000610352</ele>
        <time>2012-12-01T15:32:07Z</time>
      </trkpt>
      <trkpt lat="43.4244" lon="6.02443">
        <ele>394</ele>
        <time>2012-12-01T15:32:14Z</time>
      </trkpt>
      <trkpt lat="43.42421" lon="6.02548">
        <ele>392</ele>
        <time>2012-12-01T15:32:29Z</time>
      </trkpt>
      <trkpt lat="43.42419" lon="6.02616">
        <ele>389.60000610352</ele>
        <time>2012-12-01T15:32:38Z</time>
      </trkpt>
      <trkpt lat="43.42422" lon="6.02624">
        <ele>389.20001220703</ele>
        <time>2012-12-01T15:32:40Z</time>
      </trkpt>
      <trkpt lat="43.42433" lon="6.0263">
        <ele>387.60000610352</ele>
        <time>2012-12-01T15:32:45Z</time>
      </trkpt>
      <trkpt lat="43.42438" lon="6.02641">
        <ele>387.60000610352</ele>
        <time>2012-12-01T15:32:50Z</time>
      </trkpt>
      <trkpt lat="43.4244" lon="6.02658">
        <ele>387.60000610352</ele>
        <time>2012-12-01T15:32:55Z</time>
      </trkpt>
      <trkpt lat="43.42442" lon="6.02675">
        <ele>387.60000610352</ele>
        <time>2012-12-01T15:33:00Z</time>
      </trkpt>
      <trkpt lat="43.42442" lon="6.02688">
        <ele>387.60000610352</ele>
        <time>2012-12-01T15:33:08Z</time>
      </trkpt>
      <trkpt lat="43.42442" lon="6.02689">
        <ele>387.60000610352</ele>
        <time>2012-12-01T15:33:18Z</time>
      </trkpt>
      <trkpt lat="43.42442" lon="6.0273">
        <ele>389.60000610352</ele>
        <time>2012-12-01T15:33:31Z</time>
      </trkpt>
      <trkpt lat="43.42437" lon="6.02753">
        <ele>390</ele>
        <time>2012-12-01T15:33:39Z</time>
      </trkpt>
      <trkpt lat="43.42431" lon="6.02762">
        <ele>391.60000610352</ele>
        <time>2012-12-01T15:33:43Z</time>
      </trkpt>
      <trkpt lat="43.42429" lon="6.02799">
        <ele>391.60000610352</ele>
        <time>2012-12-01T15:33:54Z</time>
      </trkpt>
      <trkpt lat="43.42402" lon="6.02874">
        <ele>394.20001220703</ele>
        <time>2012-12-01T15:34:18Z</time>
      </trkpt>
      <trkpt lat="43.42383" lon="6.02921">
        <ele>395.79998779297</ele>
        <time>2012-12-01T15:34:31Z</time>
      </trkpt>
      <trkpt lat="43.4238" lon="6.02938">
        <ele>395.79998779297</ele>
        <time>2012-12-01T15:34:36Z</time>
      </trkpt>
      <trkpt lat="43.42377" lon="6.02954">
        <ele>395.79998779297</ele>
        <time>2012-12-01T15:34:40Z</time>
      </trkpt>
      <trkpt lat="43.42375" lon="6.02978">
        <ele>395.79998779297</ele>
        <time>2012-12-01T15:34:45Z</time>
      </trkpt>
      <trkpt lat="43.42375" lon="6.02994">
        <ele>395.79998779297</ele>
        <time>2012-12-01T15:34:48Z</time>
      </trkpt>
      <trkpt lat="43.42382" lon="6.03024">
        <ele>394</ele>
        <time>2012-12-01T15:34:53Z</time>
      </trkpt>
      <trkpt lat="43.42383" lon="6.03047">
        <ele>392.79998779297</ele>
        <time>2012-12-01T15:34:56Z</time>
      </trkpt>
      <trkpt lat="43.42374" lon="6.03117">
        <ele>388.79998779297</ele>
        <time>2012-12-01T15:35:03Z</time>
      </trkpt>
      <trkpt lat="43.42367" lon="6.03249">
        <ele>381.79998779297</ele>
        <time>2012-12-01T15:35:18Z</time>
      </trkpt>
      <trkpt lat="43.4237" lon="6.03271">
        <ele>381.79998779297</ele>
        <time>2012-12-01T15:35:26Z</time>
      </trkpt>
      <trkpt lat="43.42377" lon="6.03302">
        <ele>381.79998779297</ele>
        <time>2012-12-01T15:35:37Z</time>
      </trkpt>
      <trkpt lat="43.42376" lon="6.0332">
        <ele>381.79998779297</ele>
        <time>2012-12-01T15:35:42Z</time>
      </trkpt>
      <trkpt lat="43.4238" lon="6.03329">
        <ele>381.79998779297</ele>
        <time>2012-12-01T15:35:45Z</time>
      </trkpt>
      <trkpt lat="43.42387" lon="6.03331">
        <ele>381.79998779297</ele>
        <time>2012-12-01T15:35:49Z</time>
      </trkpt>
      <trkpt lat="43.42389" lon="6.03329">
        <ele>381.79998779297</ele>
        <time>2012-12-01T15:35:54Z</time>
      </trkpt>
      <trkpt lat="43.42389" lon="6.03329">
        <ele>381.79998779297</ele>
        <time>2012-12-01T15:36:14Z</time>
      </trkpt>
      <trkpt lat="43.42393" lon="6.03328">
        <ele>381.79998779297</ele>
        <time>2012-12-01T15:36:17Z</time>
      </trkpt>
      <trkpt lat="43.42414" lon="6.03322">
        <ele>379.60000610352</ele>
        <time>2012-12-01T15:36:24Z</time>
      </trkpt>
      <trkpt lat="43.42435" lon="6.03315">
        <ele>376.39999389648</ele>
        <time>2012-12-01T15:36:31Z</time>
      </trkpt>
      <trkpt lat="43.42463" lon="6.0331">
        <ele>372</ele>
        <time>2012-12-01T15:36:38Z</time>
      </trkpt>
      <trkpt lat="43.42476" lon="6.03296">
        <ele>369</ele>
        <time>2012-12-01T15:36:42Z</time>
      </trkpt>
      <trkpt lat="43.42484" lon="6.03288">
        <ele>367.60000610352</ele>
        <time>2012-12-01T15:36:44Z</time>
      </trkpt>
      <trkpt lat="43.42497" lon="6.03264">
        <ele>365.20001220703</ele>
        <time>2012-12-01T15:36:48Z</time>
      </trkpt>
      <trkpt lat="43.42508" lon="6.03255">
        <ele>363.39999389648</ele>
        <time>2012-12-01T15:36:51Z</time>
      </trkpt>
      <trkpt lat="43.42521" lon="6.03256">
        <ele>360.60000610352</ele>
        <time>2012-12-01T15:36:56Z</time>
      </trkpt>
      <trkpt lat="43.42531" lon="6.03264">
        <ele>360.60000610352</ele>
        <time>2012-12-01T15:37:00Z</time>
      </trkpt>
      <trkpt lat="43.42535" lon="6.03281">
        <ele>360.60000610352</ele>
        <time>2012-12-01T15:37:07Z</time>
      </trkpt>
      <trkpt lat="43.42538" lon="6.03298">
        <ele>360.60000610352</ele>
        <time>2012-12-01T15:37:13Z</time>
      </trkpt>
      <trkpt lat="43.42538" lon="6.03331">
        <ele>360.60000610352</ele>
        <time>2012-12-01T15:37:24Z</time>
      </trkpt>
      <trkpt lat="43.42538" lon="6.03338">
        <ele>361.39999389648</ele>
        <time>2012-12-01T15:37:27Z</time>
      </trkpt>
      <trkpt lat="43.42546" lon="6.03364">
        <ele>362.60000610352</ele>
        <time>2012-12-01T15:37:37Z</time>
      </trkpt>
      <trkpt lat="43.42545" lon="6.03391">
        <ele>364.79998779297</ele>
        <time>2012-12-01T15:37:47Z</time>
      </trkpt>
      <trkpt lat="43.42562" lon="6.03401">
        <ele>364.79998779297</ele>
        <time>2012-12-01T15:37:57Z</time>
      </trkpt>
      <trkpt lat="43.42567" lon="6.03405">
        <ele>364.79998779297</ele>
        <time>2012-12-01T15:38:00Z</time>
      </trkpt>
      <trkpt lat="43.4259" lon="6.0344">
        <ele>364.79998779297</ele>
        <time>2012-12-01T15:38:17Z</time>
      </trkpt>
      <trkpt lat="43.42606" lon="6.03456">
        <ele>365.60000610352</ele>
        <time>2012-12-01T15:38:30Z</time>
      </trkpt>
      <trkpt lat="43.42628" lon="6.03472">
        <ele>371</ele>
        <time>2012-12-01T15:38:47Z</time>
      </trkpt>
      <trkpt lat="43.42634" lon="6.03481">
        <ele>371</ele>
        <time>2012-12-01T15:38:53Z</time>
      </trkpt>
      <trkpt lat="43.42635" lon="6.03486">
        <ele>372</ele>
        <time>2012-12-01T15:38:56Z</time>
      </trkpt>
      <trkpt lat="43.42645" lon="6.03505">
        <ele>373.20001220703</ele>
        <time>2012-12-01T15:39:17Z</time>
      </trkpt>
      <trkpt lat="43.42646" lon="6.03512">
        <ele>373.20001220703</ele>
        <time>2012-12-01T15:40:17Z</time>
      </trkpt>
      <trkpt lat="43.42662" lon="6.03604">
        <ele>373.20001220703</ele>
        <time>2012-12-01T15:40:41Z</time>
      </trkpt>
      <trkpt lat="43.42672" lon="6.03615">
        <ele>373.20001220703</ele>
        <time>2012-12-01T15:40:46Z</time>
      </trkpt>
      <trkpt lat="43.4268" lon="6.03633">
        <ele>373.20001220703</ele>
        <time>2012-12-01T15:40:51Z</time>
      </trkpt>
      <trkpt lat="43.42683" lon="6.03653">
        <ele>373.20001220703</ele>
        <time>2012-12-01T15:40:56Z</time>
      </trkpt>
      <trkpt lat="43.42682" lon="6.03695">
        <ele>371</ele>
        <time>2012-12-01T15:41:07Z</time>
      </trkpt>
      <trkpt lat="43.4268" lon="6.03735">
        <ele>368</ele>
        <time>2012-12-01T15:41:18Z</time>
      </trkpt>
      <trkpt lat="43.42679" lon="6.03743">
        <ele>367</ele>
        <time>2012-12-01T15:41:20Z</time>
      </trkpt>
      <trkpt lat="43.42676" lon="6.03769">
        <ele>363.39999389648</ele>
        <time>2012-12-01T15:41:30Z</time>
      </trkpt>
      <trkpt lat="43.42678" lon="6.03781">
        <ele>362</ele>
        <time>2012-12-01T15:41:33Z</time>
      </trkpt>
      <trkpt lat="43.42672" lon="6.03806">
        <ele>359.20001220703</ele>
        <time>2012-12-01T15:41:41Z</time>
      </trkpt>
      <trkpt lat="43.42678" lon="6.03815">
        <ele>357.20001220703</ele>
        <time>2012-12-01T15:41:45Z</time>
      </trkpt>
      <trkpt lat="43.42683" lon="6.0383">
        <ele>355.20001220703</ele>
        <time>2012-12-01T15:41:49Z</time>
      </trkpt>
      <trkpt lat="43.42684" lon="6.0385">
        <ele>352</ele>
        <time>2012-12-01T15:41:54Z</time>
      </trkpt>
      <trkpt lat="43.42686" lon="6.03905">
        <ele>348</ele>
        <time>2012-12-01T15:42:05Z</time>
      </trkpt>
      <trkpt lat="43.42692" lon="6.03915">
        <ele>346.79998779297</ele>
        <time>2012-12-01T15:42:08Z</time>
      </trkpt>
      <trkpt lat="43.4269" lon="6.03925">
        <ele>345.39999389648</ele>
        <time>2012-12-01T15:42:11Z</time>
      </trkpt>
      <trkpt lat="43.4269" lon="6.03933">
        <ele>344.39999389648</ele>
        <time>2012-12-01T15:42:13Z</time>
      </trkpt>
      <trkpt lat="43.42707" lon="6.03953">
        <ele>342.20001220703</ele>
        <time>2012-12-01T15:42:19Z</time>
      </trkpt>
      <trkpt lat="43.42723" lon="6.03953">
        <ele>342.20001220703</ele>
        <time>2012-12-01T15:42:24Z</time>
      </trkpt>
      <trkpt lat="43.42727" lon="6.03954">
        <ele>342.20001220703</ele>
        <time>2012-12-01T15:42:25Z</time>
      </trkpt>
      <trkpt lat="43.42727" lon="6.03967">
        <ele>341.79998779297</ele>
        <time>2012-12-01T15:42:28Z</time>
      </trkpt>
      <trkpt lat="43.42715" lon="6.04013">
        <ele>340</ele>
        <time>2012-12-01T15:42:45Z</time>
      </trkpt>
      <trkpt lat="43.42705" lon="6.04026">
        <ele>340</ele>
        <time>2012-12-01T15:42:50Z</time>
      </trkpt>
      <trkpt lat="43.42696" lon="6.04046">
        <ele>338.39999389648</ele>
        <time>2012-12-01T15:42:55Z</time>
      </trkpt>
      <trkpt lat="43.4269" lon="6.04074">
        <ele>337.79998779297</ele>
        <time>2012-12-01T15:43:01Z</time>
      </trkpt>
      <trkpt lat="43.4269" lon="6.04078">
        <ele>337.79998779297</ele>
        <time>2012-12-01T15:43:02Z</time>
      </trkpt>
      <trkpt lat="43.42692" lon="6.04104">
        <ele>337.79998779297</ele>
        <time>2012-12-01T15:43:09Z</time>
      </trkpt>
      <trkpt lat="43.42685" lon="6.04115">
        <ele>337.79998779297</ele>
        <time>2012-12-01T15:43:13Z</time>
      </trkpt>
      <trkpt lat="43.42668" lon="6.04122">
        <ele>337.79998779297</ele>
        <time>2012-12-01T15:43:17Z</time>
      </trkpt>
      <trkpt lat="43.4266" lon="6.0413">
        <ele>337</ele>
        <time>2012-12-01T15:43:19Z</time>
      </trkpt>
      <trkpt lat="43.42648" lon="6.04165">
        <ele>335.79998779297</ele>
        <time>2012-12-01T15:43:25Z</time>
      </trkpt>
      <trkpt lat="43.42635" lon="6.04189">
        <ele>333.60000610352</ele>
        <time>2012-12-01T15:43:29Z</time>
      </trkpt>
      <trkpt lat="43.42634" lon="6.04196">
        <ele>333.60000610352</ele>
        <time>2012-12-01T15:43:30Z</time>
      </trkpt>
      <trkpt lat="43.4264" lon="6.04245">
        <ele>331.39999389648</ele>
        <time>2012-12-01T15:43:37Z</time>
      </trkpt>
      <trkpt lat="43.42649" lon="6.04278">
        <ele>330</ele>
        <time>2012-12-01T15:43:42Z</time>
      </trkpt>
      <trkpt lat="43.4265" lon="6.04297">
        <ele>329</ele>
        <time>2012-12-01T15:43:45Z</time>
      </trkpt>
      <trkpt lat="43.42652" lon="6.04303">
        <ele>328.60000610352</ele>
        <time>2012-12-01T15:43:47Z</time>
      </trkpt>
      <trkpt lat="43.42653" lon="6.04303">
        <ele>328.20001220703</ele>
        <time>2012-12-01T15:43:48Z</time>
      </trkpt>
      <trkpt lat="43.42653" lon="6.04303">
        <ele>326.79998779297</ele>
        <time>2012-12-01T15:44:16Z</time>
      </trkpt>
      <trkpt lat="43.42654" lon="6.043">
        <ele>326.79998779297</ele>
        <time>2012-12-01T15:45:47Z</time>
      </trkpt>
      <trkpt lat="43.42649" lon="6.0429">
        <ele>326.79998779297</ele>
        <time>2012-12-01T15:45:52Z</time>
      </trkpt>
      <trkpt lat="43.42646" lon="6.04263">
        <ele>326.79998779297</ele>
        <time>2012-12-01T15:46:23Z</time>
      </trkpt>
      <trkpt lat="43.42648" lon="6.04284">
        <ele>326.79998779297</ele>
        <time>2012-12-01T15:46:35Z</time>
      </trkpt>
      <trkpt lat="43.42651" lon="6.04293">
        <ele>326.79998779297</ele>
        <time>2012-12-01T15:47:27Z</time>
      </trkpt>
      <trkpt lat="43.42657" lon="6.04316">
        <ele>326.79998779297</ele>
        <time>2012-12-01T15:47:36Z</time>
      </trkpt>
      <trkpt lat="43.42651" lon="6.04337">
        <ele>326.79998779297</ele>
        <time>2012-12-01T15:47:41Z</time>
      </trkpt>
      <trkpt lat="43.42654" lon="6.04355">
        <ele>325</ele>
        <time>2012-12-01T15:47:45Z</time>
      </trkpt>
      <trkpt lat="43.42663" lon="6.04381">
        <ele>324.20001220703</ele>
        <time>2012-12-01T15:47:52Z</time>
      </trkpt>
      <trkpt lat="43.42659" lon="6.04439">
        <ele>320.20001220703</ele>
        <time>2012-12-01T15:48:02Z</time>
      </trkpt>
      <trkpt lat="43.42672" lon="6.04513">
        <ele>316</ele>
        <time>2012-12-01T15:48:14Z</time>
      </trkpt>
      <trkpt lat="43.4269" lon="6.04548">
        <ele>313.20001220703</ele>
        <time>2012-12-01T15:48:20Z</time>
      </trkpt>
      <trkpt lat="43.42698" lon="6.04578">
        <ele>310.39999389648</ele>
        <time>2012-12-01T15:48:25Z</time>
      </trkpt>
      <trkpt lat="43.42702" lon="6.04628">
        <ele>308.60000610352</ele>
        <time>2012-12-01T15:48:32Z</time>
      </trkpt>
      <trkpt lat="43.42699" lon="6.04646">
        <ele>307.20001220703</ele>
        <time>2012-12-01T15:48:35Z</time>
      </trkpt>
      <trkpt lat="43.42702" lon="6.04679">
        <ele>305.60000610352</ele>
        <time>2012-12-01T15:48:42Z</time>
      </trkpt>
      <trkpt lat="43.427" lon="6.04716">
        <ele>304.79998779297</ele>
        <time>2012-12-01T15:48:50Z</time>
      </trkpt>
      <trkpt lat="43.42708" lon="6.04797">
        <ele>299.60000610352</ele>
        <time>2012-12-01T15:49:07Z</time>
      </trkpt>
      <trkpt lat="43.42713" lon="6.04807">
        <ele>298.39999389648</ele>
        <time>2012-12-01T15:49:10Z</time>
      </trkpt>
      <trkpt lat="43.4273" lon="6.04813">
        <ele>297</ele>
        <time>2012-12-01T15:49:16Z</time>
      </trkpt>
      <trkpt lat="43.42753" lon="6.04809">
        <ele>297</ele>
        <time>2012-12-01T15:49:27Z</time>
      </trkpt>
      <trkpt lat="43.42758" lon="6.04811">
        <ele>297</ele>
        <time>2012-12-01T15:50:12Z</time>
      </trkpt>
      <trkpt lat="43.42776" lon="6.04824">
        <ele>297</ele>
        <time>2012-12-01T15:50:22Z</time>
      </trkpt>
      <trkpt lat="43.42779" lon="6.04837">
        <ele>295.39999389648</ele>
        <time>2012-12-01T15:50:27Z</time>
      </trkpt>
      <trkpt lat="43.42778" lon="6.0484">
        <ele>295</ele>
        <time>2012-12-01T15:50:29Z</time>
      </trkpt>
      <trkpt lat="43.42778" lon="6.04841">
        <ele>295</ele>
        <time>2012-12-01T15:50:45Z</time>
      </trkpt>
      <trkpt lat="43.42777" lon="6.04849">
        <ele>295</ele>
        <time>2012-12-01T15:50:48Z</time>
      </trkpt>
      <trkpt lat="43.42773" lon="6.04868">
        <ele>293.39999389648</ele>
        <time>2012-12-01T15:50:53Z</time>
      </trkpt>
      <trkpt lat="43.42756" lon="6.04909">
        <ele>291.20001220703</ele>
        <time>2012-12-01T15:51:01Z</time>
      </trkpt>
      <trkpt lat="43.42767" lon="6.05017">
        <ele>286.79998779297</ele>
        <time>2012-12-01T15:51:16Z</time>
      </trkpt>
      <trkpt lat="43.42751" lon="6.05064">
        <ele>284.39999389648</ele>
        <time>2012-12-01T15:51:23Z</time>
      </trkpt>
      <trkpt lat="43.42749" lon="6.05085">
        <ele>284</ele>
        <time>2012-12-01T15:51:26Z</time>
      </trkpt>
      <trkpt lat="43.42753" lon="6.05121">
        <ele>282.39999389648</ele>
        <time>2012-12-01T15:51:31Z</time>
      </trkpt>
      <trkpt lat="43.42738" lon="6.05151">
        <ele>280.60000610352</ele>
        <time>2012-12-01T15:51:36Z</time>
      </trkpt>
      <trkpt lat="43.42736" lon="6.05155">
        <ele>280.20001220703</ele>
        <time>2012-12-01T15:51:37Z</time>
      </trkpt>
      <trkpt lat="43.42726" lon="6.05188">
        <ele>277.20001220703</ele>
        <time>2012-12-01T15:51:46Z</time>
      </trkpt>
      <trkpt lat="43.42719" lon="6.05201">
        <ele>276</ele>
        <time>2012-12-01T15:51:49Z</time>
      </trkpt>
      <trkpt lat="43.42703" lon="6.05218">
        <ele>274</ele>
        <time>2012-12-01T15:51:55Z</time>
      </trkpt>
      <trkpt lat="43.42686" lon="6.05223">
        <ele>272.60000610352</ele>
        <time>2012-12-01T15:52:00Z</time>
      </trkpt>
      <trkpt lat="43.42681" lon="6.05227">
        <ele>271.79998779297</ele>
        <time>2012-12-01T15:52:02Z</time>
      </trkpt>
      <trkpt lat="43.42648" lon="6.05254">
        <ele>267.39999389648</ele>
        <time>2012-12-01T15:52:12Z</time>
      </trkpt>
      <trkpt lat="43.42627" lon="6.05259">
        <ele>267.39999389648</ele>
        <time>2012-12-01T15:52:18Z</time>
      </trkpt>
      <trkpt lat="43.4262" lon="6.05255">
        <ele>266.20001220703</ele>
        <time>2012-12-01T15:52:21Z</time>
      </trkpt>
      <trkpt lat="43.42589" lon="6.05229">
        <ele>263.39999389648</ele>
        <time>2012-12-01T15:52:33Z</time>
      </trkpt>
      <trkpt lat="43.42567" lon="6.05218">
        <ele>263.39999389648</ele>
        <time>2012-12-01T15:52:42Z</time>
      </trkpt>
      <trkpt lat="43.42561" lon="6.05218">
        <ele>263.39999389648</ele>
        <time>2012-12-01T15:52:44Z</time>
      </trkpt>
      <trkpt lat="43.42538" lon="6.05225">
        <ele>263.39999389648</ele>
        <time>2012-12-01T15:52:50Z</time>
      </trkpt>
      <trkpt lat="43.42517" lon="6.05226">
        <ele>262.39999389648</ele>
        <time>2012-12-01T15:52:54Z</time>
      </trkpt>
      <trkpt lat="43.42495" lon="6.05223">
        <ele>261</ele>
        <time>2012-12-01T15:53:00Z</time>
      </trkpt>
      <trkpt lat="43.42489" lon="6.05218">
        <ele>261</ele>
        <time>2012-12-01T15:53:02Z</time>
      </trkpt>
      <trkpt lat="43.42471" lon="6.05213">
        <ele>261</ele>
        <time>2012-12-01T15:53:07Z</time>
      </trkpt>
      <trkpt lat="43.42432" lon="6.05223">
        <ele>260.20001220703</ele>
        <time>2012-12-01T15:53:15Z</time>
      </trkpt>
      <trkpt lat="43.42413" lon="6.05222">
        <ele>258.39999389648</ele>
        <time>2012-12-01T15:53:18Z</time>
      </trkpt>
      <trkpt lat="43.42402" lon="6.05225">
        <ele>257.20001220703</ele>
        <time>2012-12-01T15:53:20Z</time>
      </trkpt>
      <trkpt lat="43.42344" lon="6.05233">
        <ele>254.80000305176</ele>
        <time>2012-12-01T15:53:31Z</time>
      </trkpt>
      <trkpt lat="43.42322" lon="6.05224">
        <ele>253.80000305176</ele>
        <time>2012-12-01T15:53:35Z</time>
      </trkpt>
      <trkpt lat="43.42274" lon="6.05214">
        <ele>249.60000610352</ele>
        <time>2012-12-01T15:53:42Z</time>
      </trkpt>
      <trkpt lat="43.42242" lon="6.05215">
        <ele>248</ele>
        <time>2012-12-01T15:53:47Z</time>
      </trkpt>
      <trkpt lat="43.42236" lon="6.05213">
        <ele>247.60000610352</ele>
        <time>2012-12-01T15:53:48Z</time>
      </trkpt>
      <trkpt lat="43.42213" lon="6.05191">
        <ele>246.60000610352</ele>
        <time>2012-12-01T15:53:53Z</time>
      </trkpt>
      <trkpt lat="43.42153" lon="6.05153">
        <ele>243.19999694824</ele>
        <time>2012-12-01T15:54:05Z</time>
      </trkpt>
      <trkpt lat="43.4213" lon="6.05117">
        <ele>242.39999389648</ele>
        <time>2012-12-01T15:54:14Z</time>
      </trkpt>
      <trkpt lat="43.42127" lon="6.05114">
        <ele>241.60000610352</ele>
        <time>2012-12-01T15:54:16Z</time>
      </trkpt>
      <trkpt lat="43.42124" lon="6.05116">
        <ele>241.19999694824</ele>
        <time>2012-12-01T15:54:20Z</time>
      </trkpt>
      <trkpt lat="43.42123" lon="6.05116">
        <ele>241.19999694824</ele>
        <time>2012-12-01T15:54:35Z</time>
      </trkpt>
      <trkpt lat="43.42118" lon="6.05114">
        <ele>241.19999694824</ele>
        <time>2012-12-01T15:54:37Z</time>
      </trkpt>
      <trkpt lat="43.4207" lon="6.0511">
        <ele>239</ele>
        <time>2012-12-01T15:54:48Z</time>
      </trkpt>
      <trkpt lat="43.42007" lon="6.05125">
        <ele>236.80000305176</ele>
        <time>2012-12-01T15:54:59Z</time>
      </trkpt>
      <trkpt lat="43.41975" lon="6.05133">
        <ele>236</ele>
        <time>2012-12-01T15:55:05Z</time>
      </trkpt>
      <trkpt lat="43.41871" lon="6.0518">
        <ele>230.80000305176</ele>
        <time>2012-12-01T15:55:21Z</time>
      </trkpt>
      <trkpt lat="43.41843" lon="6.05187">
        <ele>229.39999389648</ele>
        <time>2012-12-01T15:55:24Z</time>
      </trkpt>
      <trkpt lat="43.41749" lon="6.05178">
        <ele>224.60000610352</ele>
        <time>2012-12-01T15:55:35Z</time>
      </trkpt>
      <trkpt lat="43.41742" lon="6.05176">
        <ele>224.19999694824</ele>
        <time>2012-12-01T15:55:36Z</time>
      </trkpt>
      <trkpt lat="43.41734" lon="6.05166">
        <ele>223.19999694824</ele>
        <time>2012-12-01T15:55:38Z</time>
      </trkpt>
      <trkpt lat="43.41735" lon="6.05119">
        <ele>221.19999694824</ele>
        <time>2012-12-01T15:55:45Z</time>
      </trkpt>
      <trkpt lat="43.41733" lon="6.05108">
        <ele>221.19999694824</ele>
        <time>2012-12-01T15:55:47Z</time>
      </trkpt>
      <trkpt lat="43.41728" lon="6.05107">
        <ele>221.19999694824</ele>
        <time>2012-12-01T15:55:48Z</time>
      </trkpt>
      <trkpt lat="43.41713" lon="6.05115">
        <ele>220.19999694824</ele>
        <time>2012-12-01T15:55:51Z</time>
      </trkpt>
      <trkpt lat="43.41697" lon="6.05127">
        <ele>219</ele>
        <time>2012-12-01T15:55:54Z</time>
      </trkpt>
      <trkpt lat="43.4166" lon="6.05167">
        <ele>217.19999694824</ele>
        <time>2012-12-01T15:56:01Z</time>
      </trkpt>
      <trkpt lat="43.41637" lon="6.05166">
        <ele>215.80000305176</ele>
        <time>2012-12-01T15:56:04Z</time>
      </trkpt>
      <trkpt lat="43.4154" lon="6.05154">
        <ele>210</ele>
        <time>2012-12-01T15:56:15Z</time>
      </trkpt>
      <trkpt lat="43.41514" lon="6.05157">
        <ele>208.39999389648</ele>
        <time>2012-12-01T15:56:18Z</time>
      </trkpt>
      <trkpt lat="43.41496" lon="6.05163">
        <ele>206.19999694824</ele>
        <time>2012-12-01T15:56:22Z</time>
      </trkpt>
      <trkpt lat="43.41489" lon="6.05169">
        <ele>205</ele>
        <time>2012-12-01T15:56:26Z</time>
      </trkpt>
      <trkpt lat="43.4149" lon="6.05175">
        <ele>204</ele>
        <time>2012-12-01T15:56:28Z</time>
      </trkpt>
      <trkpt lat="43.41493" lon="6.0518">
        <ele>204</ele>
        <time>2012-12-01T15:56:30Z</time>
      </trkpt>
      <trkpt lat="43.41505" lon="6.05204">
        <ele>204</ele>
        <time>2012-12-01T15:56:36Z</time>
      </trkpt>
      <trkpt lat="43.41517" lon="6.0523">
        <ele>204</ele>
        <time>2012-12-01T15:56:42Z</time>
      </trkpt>
      <trkpt lat="43.41529" lon="6.05256">
        <ele>204</ele>
        <time>2012-12-01T15:56:48Z</time>
      </trkpt>
      <trkpt lat="43.41554" lon="6.05337">
        <ele>206.19999694824</ele>
        <time>2012-12-01T15:57:04Z</time>
      </trkpt>
      <trkpt lat="43.41575" lon="6.05388">
        <ele>206.19999694824</ele>
        <time>2012-12-01T15:57:14Z</time>
      </trkpt>
      <trkpt lat="43.41615" lon="6.05518">
        <ele>208.19999694824</ele>
        <time>2012-12-01T15:57:36Z</time>
      </trkpt>
      <trkpt lat="43.41627" lon="6.0557">
        <ele>208.19999694824</ele>
        <time>2012-12-01T15:57:45Z</time>
      </trkpt>
      <trkpt lat="43.41634" lon="6.05607">
        <ele>208.19999694824</ele>
        <time>2012-12-01T15:57:52Z</time>
      </trkpt>
      <trkpt lat="43.41637" lon="6.05635">
        <ele>208.19999694824</ele>
        <time>2012-12-01T15:57:58Z</time>
      </trkpt>
      <trkpt lat="43.41646" lon="6.0577">
        <ele>208.19999694824</ele>
        <time>2012-12-01T15:58:26Z</time>
      </trkpt>
      <trkpt lat="43.41642" lon="6.0587">
        <ele>208.19999694824</ele>
        <time>2012-12-01T15:58:44Z</time>
      </trkpt>
      <trkpt lat="43.41635" lon="6.05933">
        <ele>208.19999694824</ele>
        <time>2012-12-01T15:58:54Z</time>
      </trkpt>
      <trkpt lat="43.41615" lon="6.06079">
        <ele>205.80000305176</ele>
        <time>2012-12-01T15:59:15Z</time>
      </trkpt>
      <trkpt lat="43.41618" lon="6.06102">
        <ele>204.60000610352</ele>
        <time>2012-12-01T15:59:18Z</time>
      </trkpt>
      <trkpt lat="43.41628" lon="6.06125">
        <ele>204.19999694824</ele>
        <time>2012-12-01T15:59:22Z</time>
      </trkpt>
      <trkpt lat="43.41628" lon="6.06139">
        <ele>204.19999694824</ele>
        <time>2012-12-01T15:59:25Z</time>
      </trkpt>
      <trkpt lat="43.41621" lon="6.06145">
        <ele>204.19999694824</ele>
        <time>2012-12-01T15:59:27Z</time>
      </trkpt>
      <trkpt lat="43.41601" lon="6.06172">
        <ele>204.19999694824</ele>
        <time>2012-12-01T15:59:33Z</time>
      </trkpt>
      <trkpt lat="43.41596" lon="6.06204">
        <ele>204.19999694824</ele>
        <time>2012-12-01T15:59:40Z</time>
      </trkpt>
      <trkpt lat="43.41591" lon="6.06205">
        <ele>204.19999694824</ele>
        <time>2012-12-01T15:59:42Z</time>
      </trkpt>
      <trkpt lat="43.41584" lon="6.06198">
        <ele>204.19999694824</ele>
        <time>2012-12-01T15:59:45Z</time>
      </trkpt>
      <trkpt lat="43.41578" lon="6.0618">
        <ele>204.19999694824</ele>
        <time>2012-12-01T15:59:50Z</time>
      </trkpt>
      <trkpt lat="43.41562" lon="6.06174">
        <ele>204.19999694824</ele>
        <time>2012-12-01T16:00:05Z</time>
      </trkpt>
      <trkpt lat="43.41501" lon="6.06187">
        <ele>203.80000305176</ele>
        <time>2012-12-01T16:00:20Z</time>
      </trkpt>
      <trkpt lat="43.41479" lon="6.06184">
        <ele>202</ele>
        <time>2012-12-01T16:00:24Z</time>
      </trkpt>
      <trkpt lat="43.41473" lon="6.06182">
        <ele>202</ele>
        <time>2012-12-01T16:00:25Z</time>
      </trkpt>
      <trkpt lat="43.41423" lon="6.06169">
        <ele>202</ele>
        <time>2012-12-01T16:00:35Z</time>
      </trkpt>
      <trkpt lat="43.41397" lon="6.06151">
        <ele>200.80000305176</ele>
        <time>2012-12-01T16:00:40Z</time>
      </trkpt>
      <trkpt lat="43.41312" lon="6.06062">
        <ele>196</ele>
        <time>2012-12-01T16:00:55Z</time>
      </trkpt>
      <trkpt lat="43.41306" lon="6.06059">
        <ele>195.60000610352</ele>
        <time>2012-12-01T16:00:56Z</time>
      </trkpt>
      <trkpt lat="43.41286" lon="6.06064">
        <ele>195.60000610352</ele>
        <time>2012-12-01T16:00:59Z</time>
      </trkpt>
      <trkpt lat="43.41195" lon="6.06116">
        <ele>191.39999389648</ele>
        <time>2012-12-01T16:01:17Z</time>
      </trkpt>
      <trkpt lat="43.41191" lon="6.06114">
        <ele>191.39999389648</ele>
        <time>2012-12-01T16:01:20Z</time>
      </trkpt>
      <trkpt lat="43.41188" lon="6.06123">
        <ele>191.39999389648</ele>
        <time>2012-12-01T16:01:23Z</time>
      </trkpt>
      <trkpt lat="43.4119" lon="6.06135">
        <ele>191.39999389648</ele>
        <time>2012-12-01T16:01:27Z</time>
      </trkpt>
      <trkpt lat="43.41198" lon="6.06198">
        <ele>191.39999389648</ele>
        <time>2012-12-01T16:01:41Z</time>
      </trkpt>
      <trkpt lat="43.41189" lon="6.06205">
        <ele>191.39999389648</ele>
        <time>2012-12-01T16:01:44Z</time>
      </trkpt>
      <trkpt lat="43.41144" lon="6.06215">
        <ele>190.60000610352</ele>
        <time>2012-12-01T16:01:55Z</time>
      </trkpt>
      <trkpt lat="43.41132" lon="6.06223">
        <ele>189.39999389648</ele>
        <time>2012-12-01T16:01:58Z</time>
      </trkpt>
      <trkpt lat="43.41082" lon="6.06241">
        <ele>189.39999389648</ele>
        <time>2012-12-01T16:02:09Z</time>
      </trkpt>
      <trkpt lat="43.4104" lon="6.06254">
        <ele>189.39999389648</ele>
        <time>2012-12-01T16:02:18Z</time>
      </trkpt>
      <trkpt lat="43.41001" lon="6.06261">
        <ele>189.39999389648</ele>
        <time>2012-12-01T16:05:17Z</time>
      </trkpt>
      <trkpt lat="43.40997" lon="6.0626">
        <ele>189.39999389648</ele>
        <time>2012-12-01T16:05:50Z</time>
      </trkpt>
      <trkpt lat="43.40984" lon="6.06263">
        <ele>187.39999389648</ele>
        <time>2012-12-01T16:05:55Z</time>
      </trkpt>
      <trkpt lat="43.40973" lon="6.06261">
        <ele>187.39999389648</ele>
        <time>2012-12-01T16:05:59Z</time>
      </trkpt>
      <trkpt lat="43.40964" lon="6.06254">
        <ele>187.39999389648</ele>
        <time>2012-12-01T16:06:02Z</time>
      </trkpt>
      <trkpt lat="43.4096" lon="6.06255">
        <ele>187.39999389648</ele>
        <time>2012-12-01T16:06:07Z</time>
      </trkpt>
      <trkpt lat="43.40957" lon="6.06257">
        <ele>187.39999389648</ele>
        <time>2012-12-01T16:06:11Z</time>
      </trkpt>
      <trkpt lat="43.40952" lon="6.06267">
        <ele>187.39999389648</ele>
        <time>2012-12-01T16:06:15Z</time>
      </trkpt>
      <trkpt lat="43.40947" lon="6.06286">
        <ele>187.39999389648</ele>
        <time>2012-12-01T16:06:19Z</time>
      </trkpt>
      <trkpt lat="43.40935" lon="6.06305">
        <ele>187.39999389648</ele>
        <time>2012-12-01T16:06:24Z</time>
      </trkpt>
      <trkpt lat="43.40889" lon="6.06362">
        <ele>187.39999389648</ele>
        <time>2012-12-01T16:06:38Z</time>
      </trkpt>
      <trkpt lat="43.40866" lon="6.06391">
        <ele>187.39999389648</ele>
        <time>2012-12-01T16:06:44Z</time>
      </trkpt>
      <trkpt lat="43.40834" lon="6.06418">
        <ele>187</ele>
        <time>2012-12-01T16:06:51Z</time>
      </trkpt>
      <trkpt lat="43.40816" lon="6.06421">
        <ele>185.60000610352</ele>
        <time>2012-12-01T16:06:54Z</time>
      </trkpt>
      <trkpt lat="43.40797" lon="6.06411">
        <ele>185.19999694824</ele>
        <time>2012-12-01T16:06:58Z</time>
      </trkpt>
      <trkpt lat="43.40778" lon="6.06411">
        <ele>185.19999694824</ele>
        <time>2012-12-01T16:07:02Z</time>
      </trkpt>
      <trkpt lat="43.40764" lon="6.06414">
        <ele>185.19999694824</ele>
        <time>2012-12-01T16:07:05Z</time>
      </trkpt>
      <trkpt lat="43.40713" lon="6.06425">
        <ele>185.19999694824</ele>
        <time>2012-12-01T16:07:15Z</time>
      </trkpt>
      <trkpt lat="43.40698" lon="6.06429">
        <ele>185.60000610352</ele>
        <time>2012-12-01T16:07:18Z</time>
      </trkpt>
      <trkpt lat="43.40678" lon="6.06444">
        <ele>187.39999389648</ele>
        <time>2012-12-01T16:07:23Z</time>
      </trkpt>
      <trkpt lat="43.40664" lon="6.06459">
        <ele>188.19999694824</ele>
        <time>2012-12-01T16:07:27Z</time>
      </trkpt>
      <trkpt lat="43.40633" lon="6.0649">
        <ele>191.60000610352</ele>
        <time>2012-12-01T16:07:37Z</time>
      </trkpt>
      <trkpt lat="43.40611" lon="6.06502">
        <ele>193.60000610352</ele>
        <time>2012-12-01T16:07:45Z</time>
      </trkpt>
      <trkpt lat="43.40562" lon="6.06492">
        <ele>196.19999694824</ele>
        <time>2012-12-01T16:08:05Z</time>
      </trkpt>
      <trkpt lat="43.40559" lon="6.06492">
        <ele>196.60000610352</ele>
        <time>2012-12-01T16:08:06Z</time>
      </trkpt>
      <trkpt lat="43.40468" lon="6.06462">
        <ele>200</ele>
        <time>2012-12-01T16:08:39Z</time>
      </trkpt>
      <trkpt lat="43.40462" lon="6.06459">
        <ele>200.39999389648</ele>
        <time>2012-12-01T16:08:41Z</time>
      </trkpt>
      <trkpt lat="43.40424" lon="6.06451">
        <ele>202</ele>
        <time>2012-12-01T16:08:53Z</time>
      </trkpt>
      <trkpt lat="43.40418" lon="6.06455">
        <ele>202</ele>
        <time>2012-12-01T16:08:55Z</time>
      </trkpt>
      <trkpt lat="43.40413" lon="6.06467">
        <ele>202</ele>
        <time>2012-12-01T16:08:58Z</time>
      </trkpt>
      <trkpt lat="43.404" lon="6.06511">
        <ele>202</ele>
        <time>2012-12-01T16:09:08Z</time>
      </trkpt>
      <trkpt lat="43.40398" lon="6.06536">
        <ele>202</ele>
        <time>2012-12-01T16:09:14Z</time>
      </trkpt>
      <trkpt lat="43.40405" lon="6.0654">
        <ele>203.19999694824</ele>
        <time>2012-12-01T16:09:29Z</time>
      </trkpt>
    </trkseg>
  </trk>
</gpx>